feelingzwontfade Games - Total: 19770
Rank Song Name Score PGAMB Combo Time
1 Masterpiece [AAA] [FC] 1,288,050 831 - 0 - 0 - 0 - 0 831 2020-12-27 17:34:08
1 Lavender Town (Fairytale Remix) [AAA] [FC] 220,100 142 - 0 - 0 - 0 - 0 142 2020-12-27 17:30:42
1 Bloody Mary, Kate And Ashley [AAA] [FC] 1,484,900 958 - 0 - 0 - 0 - 0 958 2020-12-27 17:28:43
151 Your Lies 1,746,225 1,126 - 1 - 0 - 1 - 2 1,127 2020-12-27 17:25:33
1 Sibling Rivalry [AAA] [FC] 1,990,200 1,284 - 0 - 0 - 0 - 0 1,284 2020-12-27 17:20:59
229 Hearth's Warming Holiday Cheer [FC] 1,462,925 943 - 1 - 0 - 0 - 0 944 2020-12-27 17:17:12
1 Indestructible [AAA] [FC] 1,542,250 995 - 0 - 0 - 0 - 0 995 2020-12-27 17:14:16
1 Runs from the Rain [AAA] [FC] 647,900 418 - 0 - 0 - 0 - 0 418 2020-12-27 17:11:13
5,699 ABCDEath 470,405 300 - 5 - 0 - 3 - 2 305 2020-12-27 17:09:33
1 Help Me Find My Child Or The Gold [AAA] [FC] 806,000 520 - 0 - 0 - 0 - 0 520 2020-12-27 17:08:12
642 Decretum 522,050 334 - 3 - 1 - 1 - 11 338 2020-12-27 17:05:08
1,332 rough 671,125 425 - 8 - 3 - 3 - 3 436 2020-12-27 17:03:05
1,568 VS Boss Battle 566,055 613 - 52 - 5 - 21 - 8 221 2020-12-26 19:11:19
309 VS Boss Battle [FC] 1,408,400 907 - 2 - 0 - 0 - 0 909 2020-12-26 19:10:26
29 Thundersnail 933,380 615 - 27 - 1 - 1 - 2 588 2020-12-26 18:55:20
23 Thundersnail [FC] 996,530 638 - 6 - 0 - 0 - 1 644 2020-12-26 18:46:44
32 Thundersnail 710,760 607 - 33 - 3 - 1 - 1 368 2020-12-26 18:45:31
41 Thundersnail 517,720 515 - 63 - 7 - 16 - 14 222 2020-12-26 18:44:29
33 Thundersnail 684,670 603 - 36 - 2 - 3 - 3 344 2020-12-26 18:32:43
37 Thundersnail 537,995 561 - 68 - 7 - 8 - 8 213 2020-12-26 18:31:38
35 Thundersnail 593,720 595 - 40 - 4 - 5 - 10 257 2020-12-26 18:30:44
36 Thundersnail 591,805 584 - 50 - 3 - 7 - 7 259 2020-12-26 18:29:53
36 Thundersnail 510,255 590 - 43 - 4 - 7 - 6 176 2020-12-26 18:29:06
2,617 Scars Left By Time 538,785 359 - 4 - 1 - 22 - 0 347 2020-12-26 18:27:34
1,456 Zombie Killing, Blood Spilling 170,180 114 - 4 - 0 - 2 - 0 107 2020-12-26 18:25:29
198 Pure Ruby [FC] 1,890,450 1,218 - 2 - 0 - 0 - 0 1,220 2020-12-26 18:17:29
4,034 Largiloquent Dithyramb 430,135 298 - 9 - 0 - 4 - 0 265 2020-12-26 18:14:25
846 Club 598,980 543 - 21 - 5 - 4 - 24 296 2020-12-26 18:12:51
33 Thundersnail 542,680 603 - 35 - 1 - 5 - 5 203 2020-12-26 18:10:48
159 DESTINY [orgt] 1,870,945 1,439 - 3 - 0 - 1 - 1 1,079 2020-12-26 18:09:29
59 Skyfire Ace [FC] 2,084,270 1,335 - 11 - 1 - 0 - 3 1,347 2020-12-26 18:06:03
66 Smoked Turkey Rag 2,059,490 1,312 - 23 - 5 - 5 - 8 1,333 2020-12-26 18:03:27
945 A Crimson Rose and a Gin Tonic (YMCK 8bit Mix) 1,604,225 1,023 - 14 - 1 - 1 - 1 1,038 2020-12-26 18:01:01
346 Midnight Dragon [FC] 2,162,700 1,392 - 4 - 0 - 0 - 0 1,396 2020-12-26 17:58:39
455 300 [FC] 1,723,500 1,107 - 6 - 0 - 0 - 0 1,113 2020-12-26 17:55:45
2,593 Lawn Wake I 2,087,025 1,348 - 3 - 0 - 20 - 0 1,351 2020-12-26 17:50:47
369 The Rapids 1,721,940 1,423 - 24 - 0 - 1 - 0 933 2020-12-26 17:44:58
2,952 Night and Day 1,782,230 1,276 - 17 - 1 - 4 - 3 1,077 2020-12-26 17:42:27
946 Passage D [Heavy] 596,635 428 - 10 - 1 - 5 - 1 360 2020-12-26 17:38:42
211 Flamingo 1,903,700 1,469 - 4 - 0 - 1 - 2 1,095 2020-12-26 17:35:38
765 Rampage 1,167,805 827 - 8 - 1 - 4 - 3 712 2020-12-26 17:32:48
48 The Day The Sun Exploded [FC] 1,852,700 1,192 - 4 - 0 - 0 - 0 1,196 2020-12-26 17:31:06
352 Puzzle [FC] 1,308,745 837 - 9 - 0 - 0 - 4 846 2020-12-26 17:28:31
126 Suicide Pact [FC] 1,768,915 1,134 - 8 - 1 - 0 - 2 1,143 2020-12-26 17:26:35
220 Bird Sprite -Awakening of Light- 1,900,095 1,302 - 17 - 0 - 2 - 3 1,180 2020-12-26 17:24:31
121 Mellann [FC] 1,758,425 1,132 - 3 - 0 - 0 - 0 1,135 2020-12-26 17:19:40
63 Would You Be Impressed? [FC] 2,828,200 1,823 - 2 - 0 - 0 - 0 1,825 2020-12-26 17:12:12
16,580 Classical Insanity 1,063,160 681 - 6 - 0 - 0 - 2 687 2020-12-26 17:08:21
3,010 Captain Murasa's Ass Anchor 235,325 151 - 1 - 0 - 0 - 0 152 2020-12-26 17:06:40
807 Shade of Gloria 835,745 532 - 9 - 0 - 1 - 1 541 2020-12-26 17:05:31
58 INSERT COIN [FC] 1,371,200 883 - 2 - 0 - 0 - 0 885 2020-12-26 17:03:23
231 Fish Hell 2,640,360 1,846 - 5 - 1 - 1 - 3 1,624 2020-12-26 16:59:20
85 Soda [FC] 1,450,405 930 - 7 - 0 - 0 - 1 937 2020-12-26 16:54:50
327 Visions (NRGyzd Remix) [FC] 2,092,480 1,350 - 0 - 0 - 0 - 1 1,350 2020-12-26 16:52:02
3,143 Take Me Back 1,089,785 699 - 5 - 0 - 0 - 2 704 2020-12-26 16:48:09
148 Your Lies 1,746,575 1,126 - 1 - 0 - 0 - 0 1,127 2020-12-26 16:45:38
582 Right Back 3,100 2 - 0 - 0 - 0 - 0 2 2020-12-26 16:41:58
1 Clockwork [MSI] [AAA] [FC] 1,384,150 893 - 0 - 0 - 0 - 0 893 2020-12-26 00:30:01
3,476 going on -spring wind- 1,569,945 1,013 - 3 - 0 - 13 - 0 1,016 2020-12-26 00:27:49
39 Mongoloid Alien 2,221,400 1,561 - 8 - 0 - 1 - 2 1,361 2020-12-26 00:24:20
100 Death Piano v2 [FC] 2,521,730 1,622 - 6 - 0 - 0 - 1 1,628 2020-12-26 00:17:22
6,085 Black Key Etude 811,445 520 - 5 - 0 - 3 - 0 525 2020-12-26 00:13:10
6,101 Rottel-da-station 67,225 49 - 3 - 2 - 2 - 2 40 2020-12-26 00:11:27
93 Men & Machines [Redemption] [FC] 1,503,225 969 - 1 - 0 - 0 - 0 970 2020-12-26 00:06:39
218 Happy Meal [FC] 1,689,850 1,082 - 10 - 0 - 0 - 0 1,092 2020-12-26 00:02:47
520 My So-Called Life 2,736,470 2,009 - 22 - 0 - 21 - 1 1,632 2020-12-25 23:59:44
1,219 Amen Iraq 1,107,410 989 - 22 - 0 - 21 - 4 564 2020-12-25 23:56:18
4,026 Toxiferous Dystopia 641,960 424 - 10 - 0 - 3 - 3 407 2020-12-25 23:54:32
295 Rudi the Techno Pioneer 2,064,590 1,444 - 24 - 2 - 4 - 4 1,265 2020-12-25 23:52:15
77 Rudi the Techno Pioneer 2,334,635 1,621 - 9 - 0 - 1 - 4 1,441 2020-12-25 23:46:24
436 Divinity Garden 1,305,045 1,238 - 20 - 3 - 24 - 4 626 2020-12-25 23:41:19
329 Rotary Slicers 1,953,755 1,719 - 36 - 1 - 5 - 5 1,000 2020-12-25 23:38:34
680 The Bird's Poisoned Bathwater 1,245,795 785 - 22 - 1 - 0 - 3 808 2020-12-25 23:34:53
782 The Bird's Poisoned Bathwater 26,660 18 - 0 - 0 - 4 - 0 18 2020-12-25 23:33:04
267 The Bird's Poisoned Bathwater [FC] 2,169,420 1,385 - 17 - 1 - 0 - 3 1,403 2020-12-25 23:29:48
257 The Bird's Poisoned Bathwater 1,649,550 1,389 - 12 - 0 - 2 - 4 883 2020-12-25 23:25:49
805 Djentrap 935,460 851 - 25 - 1 - 8 - 2 463 2020-12-25 23:21:55
575 Doppelganger 1,486,380 1,646 - 139 - 5 - 20 - 11 549 2020-12-25 23:20:03
516 Doppelganger 1,249,615 1,686 - 97 - 6 - 21 - 9 302 2020-12-25 23:16:59
389 Phi-dentity Crisis 1,865,635 2,361 - 142 - 7 - 29 - 18 537 2020-12-25 23:13:44
317 The Bird's Midair Heatstroke 1,536,680 1,290 - 57 - 3 - 8 - 9 814 2020-12-25 23:08:53
321 The Bird's Midair Heatstroke 1,518,185 1,289 - 57 - 4 - 8 - 9 796 2020-12-25 23:05:38
359 DeVouR 1,593,090 1,389 - 80 - 6 - 3 - 13 808 2020-12-25 23:02:43
613 Schmollbluk 1,404,455 1,523 - 102 - 3 - 17 - 7 544 2020-12-25 22:59:06
3,690 Schmollbluk 407,050 267 - 10 - 0 - 21 - 2 264 2020-12-25 22:56:28
412 Counter Clockwise Chant Pattern 1,131,305 1,327 - 85 - 2 - 9 - 12 381 2020-12-25 22:53:56
1,041 Counter Clockwise Chant Pattern 743,130 999 - 91 - 9 - 34 - 15 179 2020-12-25 22:51:50
465 Counter Clockwise Chant Pattern 989,755 1,313 - 87 - 6 - 17 - 19 249 2020-12-25 22:47:44
539 Maybe All This Time I Was Wrong 392,980 250 - 6 - 0 - 7 - 0 256 2020-12-25 22:44:41
556 Lawn Wake II 1,159,125 1,407 - 62 - 3 - 22 - 6 375 2020-12-25 22:43:54
495 Real 1,145,760 860 - 66 - 8 - 31 - 11 664 2020-12-25 22:41:05
318 Real 1,258,045 1,052 - 67 - 6 - 7 - 7 663 2020-12-25 22:39:10
240 You're gonna love my nuts 2,015,500 2,913 - 474 - 40 - 126 - 57 321 2020-12-25 22:35:00
61 Fox Tales 2,167,525 2,284 - 34 - 9 - 4 - 14 903 2020-12-25 22:28:07
13 Epileptic Crisis [Heavy] [FC] 1,910,580 1,231 - 2 - 0 - 0 - 1 1,233 2020-12-25 22:21:18
14 Epileptic Crisis [Heavy] 1,379,855 1,227 - 5 - 0 - 1 - 3 704 2020-12-25 22:16:34
14 Epileptic Crisis [Heavy] 1,296,130 1,219 - 12 - 0 - 2 - 0 623 2020-12-25 22:12:59
15 Epileptic Crisis [Heavy] 1,280,240 1,213 - 17 - 1 - 2 - 1 609 2020-12-25 22:10:19
128 Time 4 Your Medicine 254,990 204 - 4 - 0 - 1 - 0 142 2020-12-25 22:07:45
10,074 Aztec Templing (Techno-Titlan Mix) 956,545 615 - 2 - 1 - 1 - 0 618 2020-12-25 22:06:56
1 Audio Avenue [AAA] [FC] 1,264,800 816 - 0 - 0 - 0 - 0 816 2020-12-25 22:04:43
1 Devotion and Desire [AAA] [FC] 2,063,050 1,331 - 0 - 0 - 0 - 0 1,331 2020-12-25 22:00:57
99 Beep Beep I'm a Sheep [FC] 1,611,725 1,039 - 1 - 0 - 0 - 0 1,040 2020-12-25 21:57:20
265 October (Dark Autumn Remix) 497,305 351 - 20 - 1 - 4 - 3 300 2020-12-23 20:24:38
214 Stray Toy's Adventure!! 555,510 460 - 5 - 1 - 6 - 3 303 2020-12-23 20:21:00
1,351 Weapon 282,440 238 - 11 - 1 - 8 - 3 151 2020-12-23 20:18:57
297 Pollyanna Rocks Your World 928,125 789 - 57 - 8 - 12 - 11 482 2020-12-23 20:17:49
1,452 Ambient Angels 1,791,470 1,145 - 24 - 0 - 22 - 3 1,162 2020-12-23 20:16:19
1,674 CORETOON 403,105 258 - 3 - 0 - 2 - 0 261 2020-12-23 20:14:02
53 Selfish Sweet 893,840 713 - 12 - 0 - 5 - 3 500 2020-12-23 20:13:19
3,634 Extreme Dishwasher Race 116,595 76 - 1 - 0 - 8 - 0 77 2020-12-23 20:11:42
5,939 Piano X Forte 894,110 576 - 2 - 0 - 4 - 0 578 2020-12-23 20:11:22
396 SAIKOU 779,775 503 - 0 - 1 - 3 - 0 504 2020-12-23 20:09:32
5,989 Coat Czech 820,915 530 - 1 - 0 - 6 - 0 531 2020-12-23 20:07:36
3,545 Gym Leader (RBY) 1,257,550 807 - 6 - 0 - 3 - 1 813 2020-12-23 20:05:57
1 The Phoenix [AAA] [FC] 1,199,700 774 - 0 - 0 - 0 - 0 774 2020-12-23 20:03:20
457 Bloody Mary, Kate And Ashley 580,630 378 - 0 - 0 - 17 - 0 378 2020-12-23 20:00:05
1 Change Yourself [Light] [AAA] [FC] 637,050 411 - 0 - 0 - 0 - 0 411 2020-12-23 19:58:30
1 Vega [AAA] [FC] 750,200 484 - 0 - 0 - 0 - 0 484 2020-12-23 19:54:50
45 One Look 400,770 435 - 128 - 42 - 11 - 579 139 2020-12-21 16:41:47
52 One Look 19,035 13 - 6 - 3 - 1 - 31 11 2020-12-21 16:39:19
846 Flamingo 2,080,580 1,330 - 13 - 3 - 2 - 2 1,346 2020-12-20 20:49:33
1,172 Jeanie and Caroline 1,838,500 1,184 - 5 - 3 - 20 - 2 1,192 2020-12-20 20:46:27
185 My So-Called Life 2,534,485 2,526 - 21 - 2 - 2 - 4 1,140 2020-12-20 20:43:32
290 Felix^3 1,503,220 1,035 - 13 - 1 - 2 - 2 931 2020-12-20 20:39:06
1,007 Buzzards 431,180 291 - 4 - 0 - 3 - 2 271 2020-12-20 20:36:55
231 koumen break 881,745 715 - 21 - 0 - 4 - 2 484 2020-12-20 20:36:03
144 Mega Man 9 Rock Medley [FC] 5,978,400 3,849 - 9 - 1 - 0 - 4 3,859 2020-12-20 20:33:41
205 Exclusive Utopia [FC] 1,974,030 1,267 - 8 - 0 - 0 - 1 1,275 2020-12-20 20:25:18
7,469 Dead and Direct 361,310 232 - 2 - 2 - 3 - 1 234 2020-12-20 20:23:03
1,511 Amen Iraq 666,970 535 - 6 - 0 - 3 - 0 372 2020-12-20 20:21:12
390 Divinity Garden 1,985,005 1,570 - 23 - 0 - 12 - 5 1,119 2020-12-20 20:20:12
153 Divinity Garden 1,711,235 1,802 - 22 - 1 - 3 - 2 715 2020-12-20 20:17:08
229 Amber Shores 1,603,730 1,668 - 61 - 3 - 5 - 3 671 2020-12-20 20:14:04
33 Nihil Descent 1,308,315 1,612 - 27 - 2 - 12 - 5 418 2020-12-20 20:10:30
507 Double Helix 1,719,160 2,054 - 127 - 5 - 24 - 15 562 2020-12-20 20:07:18
859 Grand Galop Chromatique 1,862,300 2,220 - 117 - 5 - 19 - 13 615 2020-12-20 20:03:56
436 Rock Rock Rock (t+pazolite Remix) 1,743,850 1,975 - 156 - 12 - 28 - 14 623 2020-12-20 19:59:57
431 Rengoku-Purgatorium- 1,391,025 1,592 - 160 - 3 - 30 - 22 481 2020-12-20 19:56:13
832 Eclipse (Solar) 1,065,390 1,310 - 110 - 10 - 15 - 13 319 2020-12-20 19:52:56
1,053 Eclipse (Solar) 1,092,020 1,282 - 127 - 15 - 21 - 16 358 2020-12-20 19:50:50
1,086 Eclipse (Solar) 1,052,765 1,277 - 133 - 14 - 21 - 21 320 2020-12-20 19:48:44
569 Grist [Part 2] 1,024,830 1,357 - 117 - 7 - 38 - 15 258 2020-12-20 19:46:07
964 Grist [Part 2] 840,170 1,197 - 97 - 1 - 51 - 5 171 2020-12-20 19:42:28
805 You Time 512,100 584 - 100 - 12 - 32 - 17 173 2020-12-20 19:40:14
424 You Time 973,165 1,176 - 129 - 18 - 14 - 38 295 2020-12-20 19:35:15
1,493 Staple on Smile 6,820 8 - 0 - 0 - 18 - 0 8 2020-12-20 19:32:46
902 Reluctantly Accepting Temporary Overexhaustion 770,735 1,034 - 410 - 57 - 99 - 108 119 2020-12-20 19:31:49
1,049 Reluctantly Accepting Temporary Overexhaustion 703,320 997 - 430 - 54 - 119 - 118 73 2020-12-20 19:29:41
436 Cloak Steppin 938,550 698 - 8 - 0 - 5 - 0 554 2020-12-20 19:27:46
164 Clockwork [MSI] [FC] 1,383,325 890 - 3 - 0 - 0 - 0 893 2020-12-20 19:25:26
1,239 Makiba 2,054,200 1,343 - 11 - 1 - 21 - 1 1,319 2020-12-20 19:23:29
239 Holy Samba Land 1,957,565 1,417 - 19 - 0 - 3 - 4 1,174 2020-12-20 19:20:34
188 Missing You (Gammer Remix) [FC] 1,316,675 847 - 3 - 0 - 0 - 0 850 2020-12-20 19:16:43
77 Starry Fate 1,291,045 1,374 - 21 - 2 - 8 - 3 532 2020-12-20 19:12:24
84 Starry Fate 1,091,920 1,369 - 29 - 1 - 6 - 10 333 2020-12-20 19:08:44
87 Starry Fate 1,291,480 1,365 - 31 - 3 - 6 - 5 534 2020-12-20 19:05:45
219 Starry Fate 1,311,805 834 - 15 - 0 - 0 - 1 849 2020-12-20 19:02:59
1 Elesis Theme Song (Future Bass Remix) [AAA] [FC] 1,029,200 664 - 0 - 0 - 0 - 0 664 2020-12-20 18:59:54
1 Tea Time [AAA] [FC] 985,800 636 - 0 - 0 - 0 - 0 636 2020-12-20 18:56:10
1 I'll Never Forget You [AAA] [FC] 159,650 103 - 0 - 0 - 0 - 0 103 2020-12-20 18:53:59
1 Lost In Mind [AAA] [FC] 1,632,150 1,053 - 0 - 0 - 0 - 0 1,053 2020-12-19 22:04:38
453 Highways of Ice 170,845 110 - 1 - 0 - 3 - 0 111 2020-12-19 22:01:39
1 Machines [AAA] [FC] 1,540,700 994 - 0 - 0 - 0 - 0 994 2020-12-19 21:57:51
1 Petal [AAA] [FC] 421,600 272 - 0 - 0 - 0 - 0 272 2020-12-19 21:54:47
9,825 Sepia 1,026,790 662 - 2 - 0 - 6 - 0 664 2020-12-19 21:47:38
4,599 Laser Shooter 494,740 320 - 0 - 0 - 4 - 1 320 2020-12-19 21:45:24
1 Mercury Lamp [AAA] [FC] 1,625,950 1,049 - 0 - 0 - 0 - 0 1,049 2020-12-19 21:43:16
3,110 Sensorium 2,130,650 1,377 - 1 - 1 - 13 - 0 1,377 2020-12-19 21:40:43
264 Saffron City 1,300,765 914 - 5 - 0 - 1 - 0 797 2020-12-19 20:44:47
449 i wanna kiss the moon [FC] 934,210 583 - 24 - 0 - 0 - 2 607 2020-12-19 20:42:31
122 Artificial Intelligence Bomb 2,082,070 1,345 - 6 - 0 - 1 - 1 1,341 2020-12-19 20:40:28
1,054 Artificial Intelligence Bomb 620,725 402 - 3 - 0 - 20 - 0 405 2020-12-19 20:37:12
1,055 Artificial Intelligence Bomb 517,040 400 - 2 - 0 - 21 - 0 303 2020-12-19 20:36:11
330 Intersect Thunderbolt 2,297,050 1,484 - 15 - 1 - 1 - 1 1,477 2020-12-19 20:33:42
1,452 Intersect Thunderbolt 1,083,785 743 - 5 - 0 - 20 - 2 680 2020-12-19 20:30:54
3,217 Midnight Dragon 163,075 106 - 1 - 0 - 8 - 1 107 2020-12-19 20:29:00
225 Pokamen Party 1,797,080 1,478 - 9 - 1 - 1 - 2 982 2020-12-19 20:25:37
181 Circuitry [FC] 1,633,890 1,041 - 16 - 0 - 0 - 3 1,057 2020-12-19 20:22:16
2,083 Kyrie 634,365 702 - 18 - 1 - 12 - 1 247 2020-12-19 20:15:53
336 Distorted God 1,984,335 1,398 - 10 - 1 - 1 - 3 1,213 2020-12-19 20:14:03
562 Distorted God 1,445,125 1,366 - 39 - 2 - 3 - 4 684 2020-12-19 20:10:24
1,073 Lawn Wake IX 1,125,995 719 - 11 - 0 - 8 - 0 730 2020-12-19 20:07:55
180 Shatterscape (Bexarametric Remix) [FC] 2,005,600 1,289 - 6 - 0 - 0 - 0 1,295 2020-12-19 20:02:17
332 Shatterscape (Bexarametric Remix) 1,478,335 1,273 - 20 - 1 - 1 - 3 773 2020-12-19 19:59:31
105 Apocalypse 2,218,430 1,542 - 47 - 7 - 6 - 6 1,359 2020-12-19 19:52:59
540 My So-Called Life 2,591,235 1,873 - 26 - 3 - 23 - 5 1,561 2020-12-19 19:50:05
354 Pussy Pump 1,490,510 1,272 - 20 - 0 - 5 - 2 787 2020-12-19 19:44:45
462 Pussy Pump 1,169,275 1,253 - 31 - 2 - 11 - 5 475 2020-12-19 19:41:46
1,138 Flesvelka 754,680 476 - 14 - 0 - 3 - 2 490 2020-12-19 19:39:36
334 Flesvelka 1,754,965 1,620 - 31 - 2 - 5 - 6 857 2020-12-19 18:30:09
125 Marianas Trench 1,555,210 1,416 - 15 - 3 - 6 - 1 774 2020-12-19 18:26:39
5,786 Frictional Nevada 1,235,485 786 - 12 - 3 - 4 - 2 801 2020-12-19 18:23:15
528 Ultrasounds! 1,129,095 1,130 - 90 - 5 - 17 - 8 488 2020-12-19 18:12:56
379 Blue Rose 3,559,410 3,573 - 45 - 1 - 3 - 12 1,583 2020-12-19 18:10:00
755 Necropotence 1,738,345 1,577 - 93 - 10 - 15 - 24 850 2020-12-19 18:02:45
12,743 Necropotence 4,650 3 - 0 - 0 - 0 - 0 3 2020-12-19 18:00:12
369 Lawn Wake II 1,388,710 1,501 - 64 - 4 - 8 - 9 548 2020-12-19 17:58:23
406 Dishevel 1,149,510 1,380 - 107 - 23 - 22 - 18 367 2020-12-19 17:55:24
477 Our Journey and Epilogue. 1,440,300 1,392 - 127 - 9 - 24 - 14 647 2020-12-19 17:51:56
553 Playing Super Mario World While Taking Mushrooms 1,475,355 1,989 - 486 - 31 - 121 - 72 285 2020-12-19 17:48:17
221 Koi No Sibou Flag 212,460 130 - 9 - 1 - 5 - 1 140 2020-12-19 17:45:01
212 Autoprocess 710,195 797 - 67 - 4 - 12 - 4 257 2020-12-19 17:44:18
70 Carlinism 120,465 78 - 5 - 0 - 9 - 1 79 2020-12-19 17:42:21
28 Carlinism 601,250 664 - 22 - 0 - 16 - 2 235 2020-12-19 17:41:21
29 Carlinism 594,415 653 - 35 - 0 - 14 - 1 230 2020-12-19 17:39:46
25 Carlinism 591,895 666 - 27 - 0 - 9 - 2 221 2020-12-19 17:36:15
240 Feldschlacht (j.z. mix) 2,406,590 1,774 - 8 - 0 - 1 - 0 1,429 2020-12-19 17:31:58
255 Feldschlacht (j.z. mix) 2,406,315 1,773 - 9 - 0 - 1 - 0 1,429 2020-12-19 17:28:11
265 Angel Island Remix [FC] 1,795,350 1,155 - 4 - 0 - 0 - 0 1,159 2020-12-19 17:24:23
1,193 Grassland Filled With Fighting Spirit 1,160,750 743 - 12 - 0 - 20 - 0 755 2020-12-19 17:21:49
1,958 Kil Stage 1,529,960 1,074 - 4 - 0 - 22 - 1 945 2020-12-19 17:18:02
211 Infiltration [FC] 2,071,800 1,335 - 2 - 0 - 0 - 0 1,337 2020-12-19 17:14:50
2,789 Infiltration 601,920 384 - 6 - 0 - 3 - 0 390 2020-12-19 17:11:43
8,948 Jelly Roll Blues 865,760 552 - 8 - 0 - 0 - 2 560 2020-12-19 17:09:45
591 Jelly Roll Blues [FC] 1,204,485 773 - 5 - 0 - 0 - 2 778 2020-12-19 17:07:07
635 Fish Hell 2,123,655 1,783 - 13 - 0 - 21 - 3 1,146 2020-12-19 17:05:15
1,322 Fall Silently 1,425,315 914 - 7 - 0 - 1 - 0 921 2020-12-19 17:01:24
1 Precious Things [AAA] [FC] 1,162,500 750 - 0 - 0 - 0 - 0 750 2020-12-19 16:56:39
484 Marble Mountain 969,675 627 - 1 - 0 - 11 - 2 628 2020-12-19 16:53:32
409 ABCDEath [FC] 593,375 382 - 1 - 0 - 0 - 0 383 2020-12-19 16:51:41
1 Jump Up, Super Star! (TLT Remix) [AAA] [FC] 871,100 562 - 0 - 0 - 0 - 0 562 2020-12-19 16:49:11
1 Fett's Vette v2 [AAA] [FC] 1,858,450 1,199 - 0 - 0 - 0 - 0 1,199 2020-12-19 16:44:12
1 Flora [AAA] [FC] 1,136,150 733 - 0 - 0 - 0 - 0 733 2020-12-19 16:39:48
99 Precious Things 235,325 155 - 1 - 0 - 20 - 0 156 2020-12-19 16:29:41
87 Precious Things 734,115 473 - 1 - 0 - 1 - 0 474 2020-12-19 16:29:01
1 Endless Tewi-ma Park [AAA] [FC] 1,497,300 966 - 0 - 0 - 0 - 0 966 2020-12-19 16:21:21
4,007 Endless Tewi-ma Park 53,975 38 - 1 - 0 - 20 - 0 39 2020-12-19 16:11:56
3,539 Endless Tewi-ma Park 251,100 166 - 0 - 0 - 20 - 0 166 2020-12-19 16:11:23
500 Carol of the Bells 1,236,265 1,345 - 31 - 6 - 20 - 7 494 2020-12-17 20:38:54
1,073 DRAGONLADY 544,895 419 - 5 - 0 - 3 - 0 314 2020-12-17 20:35:27
727 PrayStation 798,705 731 - 13 - 0 - 6 - 3 395 2020-12-17 20:34:10
347 Black 1,567,685 1,477 - 27 - 0 - 3 - 8 749 2020-12-17 20:32:18
374 Zephyros 1,117,105 1,234 - 63 - 4 - 26 - 4 429 2020-12-17 20:29:42
67 Red Vector Acid Minute 646,925 632 - 36 - 1 - 5 - 4 291 2020-12-17 20:27:34
1,006 Downtemperature 792,250 499 - 18 - 2 - 20 - 3 519 2020-12-17 20:26:18
186 My So-Called Life 3,024,955 2,524 - 23 - 2 - 2 - 3 1,631 2020-12-17 20:24:23
521 B.B. - Revenge - 2,203,280 2,343 - 35 - 1 - 3 - 6 906 2020-12-17 20:19:28
169 Epstein-Horsharck Lids 789,905 720 - 37 - 2 - 14 - 2 388 2020-12-17 20:14:25
1,001 Indo No Sobaya (t+pazolite Remix) 1,118,865 940 - 34 - 1 - 8 - 3 595 2020-12-17 20:12:44
362 Indo No Sobaya (t+pazolite Remix) 1,233,775 1,387 - 32 - 1 - 9 - 7 465 2020-12-17 20:10:46
576 Unicron Barbeque 1,032,845 771 - 17 - 0 - 6 - 1 606 2020-12-17 20:08:06
461 BEER [Is-m] 670,210 663 - 47 - 1 - 14 - 4 297 2020-12-17 20:05:17
293 BEER [Is-m] 912,180 1,102 - 50 - 4 - 15 - 12 297 2020-12-17 20:03:22
759 Ketsarku Mozgalom [FC] 2,521,005 1,588 - 46 - 1 - 0 - 5 1,635 2020-12-17 19:56:51
2,466 Mathsma Attack 28,830 19 - 0 - 0 - 2 - 0 19 2020-12-17 19:53:54
445 Mathsma Attack 2,062,275 2,506 - 71 - 2 - 8 - 9 667 2020-12-17 19:48:55
540 Ant IDM 1,302,270 1,109 - 160 - 12 - 32 - 21 658 2020-12-17 19:43:18
550 Fuse Gymnast 895,690 1,203 - 88 - 8 - 24 - 8 217 2020-12-17 19:40:52
370 Future Invasion 2,736,055 2,723 - 210 - 27 - 33 - 30 1,190 2020-12-17 19:37:24
376 Future Invasion 2,788,115 2,699 - 248 - 17 - 29 - 24 1,244 2020-12-17 19:32:39
708 Future Invasion 1,606,250 1,037 - 4 - 0 - 20 - 0 1,041 2020-12-17 19:27:56
822 Future Invasion 400,830 260 - 0 - 0 - 7 - 0 260 2020-12-17 19:24:49
385 Turbo [RushJet1] 915,750 1,202 - 88 - 4 - 31 - 8 240 2020-12-17 19:23:37
502 Turbo [RushJet1] 896,620 1,131 - 146 - 4 - 44 - 8 248 2020-12-17 19:21:34
1,217 Turbo [RushJet1] 124,570 115 - 17 - 1 - 27 - 2 65 2020-12-17 19:18:52
651 Rage Template 978,020 1,335 - 211 - 5 - 29 - 27 195 2020-12-17 19:17:07
558 Etude for the Sinners 943,760 1,179 - 438 - 52 - 96 - 62 203 2020-12-17 19:14:10
407 Infinity [cosMo] 1,935,105 2,710 - 324 - 11 - 72 - 39 378 2020-12-17 19:11:37
402 Storm Raid Battle 1,596,115 2,090 - 231 - 12 - 39 - 24 395 2020-12-17 19:06:59
366 You're gonna love my nuts 1,470,905 1,973 - 443 - 40 - 133 - 52 304 2020-12-17 19:02:03
3,423 Music (For Kirby) 303,010 245 - 44 - 0 - 12 - 6 160 2020-12-17 18:58:23
739 Music (For Kirby) 1,124,370 1,549 - 203 - 11 - 47 - 22 231 2020-12-17 18:57:25
559 Go Beyond!! -Jazzy mix- 2,203,235 2,714 - 400 - 13 - 74 - 62 624 2020-12-17 18:54:14
159 Perihelion / Aphelion 1,978,190 1,983 - 121 - 3 - 28 - 11 863 2020-12-17 18:49:47
180 Pokemon BW - Elite Four Battle [FC] 1,864,550 1,198 - 6 - 0 - 0 - 0 1,204 2020-12-17 18:38:50
953 Lorem Ipsum 1,646,260 1,045 - 21 - 1 - 4 - 4 1,067 2020-12-17 18:36:52
1,429 HEY HEY MONKEY 1,482,350 944 - 14 - 4 - 6 - 3 961 2020-12-17 18:33:47
271 Mortal Kombat Menu Metal [FC] 1,498,180 960 - 8 - 0 - 0 - 1 968 2020-12-17 18:31:32
301 AcidAce-Alliance [FC] 1,329,030 851 - 7 - 1 - 0 - 0 859 2020-12-17 18:27:42
272 jelly [FC] 1,139,150 730 - 6 - 0 - 0 - 0 736 2020-12-17 18:25:32
166 The Formula 1,539,065 1,326 - 11 - 2 - 1 - 3 807 2020-12-17 18:22:04
1 Black Wing Metamorphosis [AAA] [FC] 2,015,000 1,300 - 0 - 0 - 0 - 0 1,300 2020-12-17 18:18:25
1 Introduction [AAA] [FC] 802,900 518 - 0 - 0 - 0 - 0 518 2020-12-17 18:11:18
518 Marble Mountain 802,250 516 - 2 - 0 - 0 - 5 518 2020-12-17 18:09:41
1 Utopia [Jason Forrest] [AAA] [FC] 607,600 392 - 0 - 0 - 0 - 0 392 2020-12-17 18:08:13
1 In The Wind [AAA] [FC] 643,250 415 - 0 - 0 - 0 - 0 415 2020-12-17 18:06:16
1 Chiyeko melancholy [AAA] [FC] 128,650 83 - 0 - 0 - 0 - 0 83 2020-12-17 18:05:01
685 Tornado 1,191,310 769 - 0 - 0 - 2 - 1 769 2020-12-17 18:03:39
1 Snow [Torley Wong] [AAA] [FC] 1,021,450 659 - 0 - 0 - 0 - 0 659 2020-12-17 18:00:33
1 Automagic [AAA] [FC] 1,393,450 899 - 0 - 0 - 0 - 0 899 2020-12-17 17:57:27
1 Daybreak [Ryan Iyengar] [AAA] [FC] 1,125,300 726 - 0 - 0 - 0 - 0 726 2020-12-17 17:54:08
1 Five Karots [AAA] [FC] 223,200 144 - 0 - 0 - 0 - 0 144 2020-12-17 17:51:39
2,299 Doomsday 606,455 420 - 1 - 2 - 3 - 0 376 2020-12-17 17:49:15
1,414 Keep In Mind 1,953,445 1,258 - 9 - 0 - 3 - 0 1,260 2020-12-13 19:18:22
3,762 Summer Time Perfume 1,402,915 898 - 8 - 1 - 0 - 12 907 2020-12-13 19:14:51
855 Blue 1,564,275 1,002 - 15 - 2 - 16 - 5 1,014 2020-12-13 19:11:33
328 Run Run Run 3,309,145 2,127 - 14 - 1 - 21 - 5 2,142 2020-12-13 19:09:25
102 Ani Mevushal 2,391,065 1,695 - 27 - 2 - 2 - 5 1,452 2020-12-13 19:06:00
6,059 bmv.578 231,045 214 - 1 - 0 - 3 - 0 114 2020-12-13 19:02:16
904 Lawn Wake IX 1,709,415 1,098 - 11 - 0 - 21 - 0 1,109 2020-12-13 19:00:36
300 Rudi the Techno Pioneer 1,730,435 1,437 - 12 - 1 - 7 - 5 939 2020-12-13 18:58:02
1,429 Amen Iraq 1,034,170 703 - 11 - 1 - 8 - 4 647 2020-12-13 18:52:13
1,163 Amen Iraq 1,488,800 1,075 - 22 - 2 - 21 - 5 898 2020-12-13 18:51:01
328 Amen Iraq 1,697,895 1,657 - 20 - 1 - 3 - 4 782 2020-12-13 18:48:50
338 Eclipse (Luna) [FC] 1,770,180 1,121 - 24 - 2 - 0 - 4 1,147 2020-12-13 18:45:38
422 Eclipse (Luna) 1,341,680 1,111 - 27 - 3 - 6 - 5 725 2020-12-13 18:43:20
229 Paraclete [Heavy] 1,746,075 1,488 - 11 - 0 - 1 - 2 925 2020-12-13 18:40:34
66 World's Most Wanted Wiener 3,613,665 2,374 - 1 - 0 - 1 - 0 2,308 2020-12-13 18:31:44
341 HAELEQUIN [FC] 2,257,065 1,444 - 14 - 1 - 0 - 2 1,459 2020-12-13 18:24:19
1,020 Music (For Kirby) 1,133,935 1,336 - 139 - 8 - 33 - 15 371 2020-12-13 18:20:47
550 grind2 709,660 828 - 38 - 2 - 10 - 10 247 2020-12-13 18:17:25
1,730 grind2 595,020 621 - 44 - 2 - 18 - 8 247 2020-12-13 18:15:49
610 grind2 752,795 812 - 56 - 3 - 7 - 10 293 2020-12-13 18:14:42
1,277 grind2 648,080 723 - 50 - 2 - 33 - 10 247 2020-12-13 18:12:59
635 grind2 704,435 813 - 50 - 1 - 14 - 9 248 2020-12-13 18:11:45
634 grind2 704,830 808 - 58 - 4 - 8 - 13 247 2020-12-13 18:09:46
651 grind2 702,460 812 - 48 - 4 - 14 - 11 247 2020-12-13 18:08:13
628 The Bird's Poisoned Bathwater 1,379,190 1,091 - 29 - 3 - 6 - 7 773 2020-12-13 18:06:44
742 The Bird's Poisoned Bathwater 507,590 337 - 6 - 0 - 11 - 0 324 2020-12-13 18:04:17
679 The Bird's Poisoned Bathwater 1,255,745 816 - 11 - 2 - 23 - 3 811 2020-12-13 18:01:06
348 The Bird's Midair Heatstroke 1,184,485 1,266 - 81 - 4 - 7 - 7 468 2020-12-13 17:56:06
351 The Bird's Midair Heatstroke 1,154,365 1,273 - 67 - 10 - 8 - 14 438 2020-12-13 17:53:27
356 Lawn Wake XI 1,189,170 1,281 - 80 - 4 - 14 - 13 467 2020-12-13 17:50:54
361 Lawn Wake XI 1,186,895 1,276 - 81 - 8 - 14 - 14 467 2020-12-13 17:47:21
291 Herbie Goes Ballistic 2,979,645 3,761 - 232 - 17 - 22 - 41 854 2020-12-13 17:43:33
410 Japan Style Breakcore!!! 1,516,365 2,039 - 167 - 2 - 28 - 22 358 2020-12-13 17:37:48
630 J'ai Envie de Plaisir X2 1,149,290 1,460 - 157 - 9 - 26 - 16 311 2020-12-13 17:32:27
673 J'ai Envie de Plaisir X2 1,003,985 1,441 - 171 - 6 - 34 - 19 175 2020-12-13 17:29:52
2,518 Jamais Vu 113,460 74 - 0 - 0 - 4 - 0 74 2020-12-13 17:25:39
1,077 Rave 7 875,095 951 - 406 - 51 - 93 - 79 268 2020-12-13 17:24:57
711 Epileptic Crisis [Oni] 646,835 825 - 167 - 10 - 29 - 20 156 2020-12-13 17:22:57
346 Epileptic Crisis [Oni] 1,018,470 1,395 - 255 - 15 - 49 - 27 196 2020-12-13 17:20:44
1,009 Death Piano 1,385,305 1,833 - 465 - 34 - 121 - 54 286 2020-12-13 17:18:09
305 Child Protective Services Theme Song [Oni] [FC] 1,737,230 1,095 - 29 - 3 - 0 - 8 1,127 2020-12-13 17:14:56
922 Downtemperature 960,525 629 - 21 - 2 - 17 - 2 614 2020-12-13 17:12:40
165 Lexus Cyanixs [FC] 2,479,800 1,590 - 12 - 0 - 0 - 0 1,602 2020-12-13 17:10:17
142 Ascension for Owls 2,052,750 1,310 - 18 - 0 - 2 - 4 1,328 2020-12-13 17:07:43
36 Ascension for Owls 1,770,945 1,493 - 9 - 0 - 2 - 3 948 2020-12-13 17:03:41
108 Apocalypse 1,925,290 1,534 - 56 - 6 - 6 - 14 1,068 2020-12-13 16:59:21
220 Aleph-0 1,351,345 1,234 - 84 - 7 - 12 - 6 653 2020-12-13 16:56:39
210 A White Cat Sings Lovely Jazz Waltz 2,176,315 1,659 - 19 - 2 - 1 - 8 1,259 2020-12-13 16:52:25
2,327 4 Chord Touhou 2,134,015 1,531 - 102 - 7 - 27 - 5 1,272 2020-12-13 16:48:47
468 Amnolys 1,507,105 1,052 - 21 - 2 - 4 - 7 924 2020-12-13 16:44:45
9,563 Pimp Slap 65,745 39 - 3 - 2 - 2 - 1 44 2020-12-13 16:37:58
202 Spider Dance [FC] 1,474,775 949 - 3 - 0 - 0 - 0 952 2020-12-13 16:35:58
1 Tope Doge [AAA] [FC] 2,002,600 1,292 - 0 - 0 - 0 - 0 1,292 2020-12-13 16:30:22
1,091 Try To Star 1,113,535 773 - 12 - 1 - 3 - 2 686 2020-12-13 16:27:41
312 The Epidemic of Unexpected Relapses [FC] 1,978,740 1,275 - 2 - 0 - 0 - 3 1,277 2020-12-13 16:25:51
90 before... [FC] 1,958,490 1,257 - 8 - 0 - 0 - 3 1,265 2020-12-13 16:21:46
884 Soulcrusher 1,564,020 1,008 - 8 - 2 - 15 - 2 1,012 2020-12-13 16:18:29
348 Ska de Chocobo !! 1,232,705 1,114 - 9 - 0 - 1 - 8 618 2020-12-13 16:15:57
58 Dance With 12 Gauge [FC] 1,558,455 1,003 - 3 - 0 - 0 - 1 1,006 2020-12-13 16:13:44
1,179 Celsus 491,055 447 - 6 - 1 - 8 - 1 246 2020-12-13 16:09:44
261 Shotgun Senorita 1,708,600 1,199 - 6 - 0 - 24 - 3 1,055 2020-12-13 16:08:30
75 Cloak Steppin 2,324,255 1,650 - 15 - 0 - 1 - 3 1,413 2020-12-12 20:53:36
5,645 0 (piano version) 507,045 325 - 2 - 1 - 1 - 0 328 2020-12-12 20:50:26
398 Amnolys 1,659,380 1,089 - 14 - 0 - 14 - 4 1,061 2020-12-12 20:49:26
1,928 Makiba 672,040 431 - 5 - 3 - 5 - 0 435 2020-12-12 20:47:11
173 Wonder World! v2 1,508,120 996 - 6 - 0 - 1 - 1 959 2020-12-12 20:46:23
311 Undiscovered Colors [FC] 1,908,930 1,225 - 8 - 0 - 0 - 1 1,233 2020-12-12 20:44:16
974 Seedy Try 338,240 217 - 2 - 0 - 2 - 2 219 2020-12-12 20:41:10
201 Summer Time Perfume [FC] 2,581,750 1,664 - 2 - 0 - 0 - 0 1,666 2020-12-12 20:34:18
268 POWERPUFF GABBERZ 2,316,625 1,756 - 4 - 1 - 1 - 1 1,350 2020-12-12 20:27:15
4,773 Hajnal 1,687,125 1,090 - 3 - 0 - 20 - 0 1,093 2020-12-12 20:23:21
213 Nix-Tek 1,927,170 1,506 - 8 - 0 - 1 - 1 1,097 2020-12-12 20:20:28
196 Warm Hands In Cold Fog 823,125 670 - 13 - 0 - 3 - 1 452 2020-12-12 20:17:47
361 Document 13b 1,550,305 1,156 - 15 - 0 - 2 - 0 911 2020-12-12 20:15:34
1,124 Electric Butterfly 1,107,005 855 - 20 - 1 - 12 - 4 635 2020-12-12 20:12:23
246 Tetris [Powerglove] 2,030,255 1,841 - 28 - 1 - 3 - 6 1,011 2020-12-12 20:10:19
1,845 JULIA 1,406,230 911 - 12 - 0 - 10 - 1 905 2020-12-12 20:06:54
305 JULIA [FC] 2,003,655 1,282 - 13 - 0 - 0 - 1 1,295 2020-12-12 20:04:36
305 JULIA 1,407,290 1,285 - 8 - 0 - 2 - 2 699 2020-12-12 20:00:55
264 Obscene Amount of Steam [FC] 2,361,300 1,504 - 22 - 2 - 0 - 3 1,528 2020-12-12 19:58:35
923 Fried Eggs In My Ear 793,180 495 - 21 - 1 - 6 - 2 517 2020-12-12 19:54:04
1,138 Guitars Suck 5,270 5 - 0 - 0 - 8 - 0 5 2020-12-12 19:52:53
1,227 Amen Iraq 1,185,040 973 - 23 - 1 - 11 - 4 647 2020-12-12 19:51:09
1,056 Mahou no Oshigoto 1,272,365 1,008 - 58 - 1 - 32 - 6 712 2020-12-12 19:48:08
680 Bubble Bath Aftermath 1,784,895 1,286 - 10 - 5 - 1 - 6 1,075 2020-12-12 19:46:26
619 Bubble Bath Aftermath 2,393,610 1,537 - 14 - 0 - 21 - 4 1,551 2020-12-12 19:43:02
823 Jasmine (Camelrape Remix) 2,071,635 1,312 - 32 - 3 - 19 - 2 1,347 2020-12-12 19:39:04
617 Rotary Slicers 1,682,965 1,345 - 68 - 3 - 27 - 14 933 2020-12-12 19:36:22
556 Ripcord 810,295 570 - 50 - 3 - 26 - 3 491 2020-12-12 19:33:19
1,494 Epileptic Crisis [Oni] 182,915 127 - 26 - 3 - 7 - 4 108 2020-12-12 19:31:59
1,027 Epileptic Crisis [Oni] 314,460 378 - 82 - 2 - 32 - 9 94 2020-12-12 18:48:43
1,276 Death Piano 1,383,060 1,728 - 553 - 41 - 131 - 53 320 2020-12-12 18:47:57
1,413 Death Piano 1,338,640 1,703 - 559 - 35 - 156 - 65 296 2020-12-12 18:44:13
489 Real 1,140,865 857 - 67 - 10 - 20 - 13 657 2020-12-12 18:41:06
482 Sleep [Part 1] 1,580,850 1,951 - 104 - 2 - 15 - 13 484 2020-12-12 18:39:06
8,088 Frictional Nevada 814,265 521 - 7 - 0 - 7 - 2 528 2020-12-12 18:35:09
2,101 Clockwork [Breakbeat Heartbeat] 1,566,355 1,034 - 13 - 0 - 22 - 5 1,001 2020-12-12 18:33:10
136 Drive of Unliving Things 2,282,930 1,455 - 22 - 0 - 1 - 3 1,477 2020-12-12 18:29:38
174 Foam Born (A) The Backtrack [FC] 1,519,605 973 - 9 - 0 - 0 - 1 982 2020-12-12 18:25:38
183 Just Hold On 1,698,780 1,585 - 6 - 0 - 2 - 0 826 2020-12-12 18:22:54
137 Crimson Rider 2,127,195 1,375 - 9 - 0 - 21 - 1 1,375 2020-12-12 18:19:17
1 Red Tint [AAA] [FC] 1,103,600 712 - 0 - 0 - 0 - 0 712 2020-12-12 18:15:53
1 Before Dawn [AAA] [FC] 1,315,950 849 - 0 - 0 - 0 - 0 849 2020-12-12 18:12:01
939 Beep Beep I'm a Sheep 860,285 556 - 1 - 0 - 9 - 0 557 2020-12-12 18:07:38
462 Marble Mountain 1,000,750 648 - 2 - 0 - 20 - 0 650 2020-12-12 18:06:06
140 Red Sphere, Blue Sphere [FC] 1,379,675 886 - 5 - 0 - 0 - 0 891 2020-12-09 00:05:17
260 Four Blocks Madness [FC] 1,877,775 1,209 - 3 - 0 - 0 - 0 1,212 2020-12-09 00:01:14
329 Four Blocks Madness 1,697,330 1,208 - 2 - 0 - 2 - 0 1,033 2020-12-08 23:58:24
3,145 Four Blocks Madness 15,500 14 - 0 - 0 - 20 - 0 14 2020-12-08 23:56:32
1,836 Night and Day 1,877,905 2,191 - 35 - 0 - 25 - 1 671 2020-12-08 23:55:39
318 Fast Asleep [FC] 1,029,650 661 - 4 - 0 - 0 - 0 665 2020-12-08 23:51:03
355 Fast Asleep [FC] 1,029,375 660 - 5 - 0 - 0 - 0 665 2020-12-08 23:48:29
390 Fast Asleep 842,025 661 - 3 - 0 - 1 - 2 478 2020-12-08 23:46:14
243 Thrash [FC] 3,236,810 2,085 - 4 - 0 - 0 - 2 2,089 2020-12-08 23:39:46
1,312 The Rapids 1,158,915 739 - 23 - 2 - 3 - 2 747 2020-12-08 23:36:00
403 Puzzle 1,141,790 834 - 10 - 0 - 2 - 2 681 2020-12-08 23:34:25
624 STRANGEPROGRAM [Cut] 2,041,095 1,426 - 15 - 0 - 1 - 1 1,253 2020-12-08 23:32:05
3,423 STRANGEPROGRAM [Cut] 1,428,880 1,177 - 11 - 1 - 21 - 2 785 2020-12-08 23:29:02
434 Church Bells 1,135,670 1,195 - 4 - 0 - 2 - 3 478 2020-12-08 23:26:28
467 Church Bells 1,532,470 1,192 - 8 - 0 - 1 - 1 875 2020-12-08 23:22:43
637 Church Bells 1,232,635 1,188 - 9 - 0 - 4 - 0 578 2020-12-08 23:20:22
264 cheerful forest 1,639,915 1,352 - 24 - 1 - 4 - 5 891 2020-12-08 23:17:17
298 cheerful forest 1,634,205 1,337 - 38 - 1 - 5 - 5 890 2020-12-08 23:14:40
588 A Crimson Rose and a Gin Tonic (YMCK 8bit Mix) 1,835,490 1,362 - 15 - 1 - 9 - 0 1,085 2020-12-08 23:09:16
332 Floating Away 2,000,415 1,750 - 15 - 4 - 1 - 6 1,034 2020-12-08 23:05:40
735 Capoeira Sundance 907,030 629 - 39 - 1 - 2 - 4 551 2020-12-08 23:01:02
1,131 A FLOWER GARDEN 1,086,160 912 - 16 - 0 - 22 - 1 587 2020-12-08 22:58:48
238 404th of July 130,855 113 - 41 - 0 - 5 - 1 59 2020-12-08 22:56:25
586 My Little Pony Medley [Heavy] 388,435 244 - 9 - 0 - 4 - 0 253 2020-12-08 22:52:48
1,286 Grassland Filled With Fighting Spirit 1,037,920 661 - 12 - 0 - 3 - 0 672 2020-12-08 22:51:38
356 moon_child -Go with the flow- [FC] 1,864,255 1,197 - 7 - 0 - 0 - 1 1,204 2020-12-08 22:48:21
938 All Y'all Bitches 1,105,450 930 - 31 - 3 - 12 - 1 589 2020-12-08 22:43:55
2,045 Gangsters Paradise (Candyland's OG Remix) 834,430 538 - 4 - 0 - 5 - 1 539 2020-12-08 22:27:25
2,177 Falcon Punch 463,485 299 - 1 - 0 - 4 - 0 300 2020-12-08 22:24:26
9,778 Ievan Polkka (Rin & Len ver.) 662,580 458 - 8 - 0 - 8 - 2 411 2020-12-08 22:23:21
1 Kindred, the Eternal Hunters [AAA] [FC] 906,750 585 - 0 - 0 - 0 - 0 585 2020-12-08 22:19:51
748 Kindred, the Eternal Hunters 448,275 289 - 1 - 0 - 3 - 1 290 2020-12-08 22:17:11
1 Passengers [Beginner] [AAA] [FC] 63,550 41 - 0 - 0 - 0 - 0 41 2020-12-08 22:13:57
5,856 Euthanasia 1,134,325 735 - 1 - 0 - 20 - 0 736 2020-12-08 22:12:35
534 OWA Raged at Kurorak for Making OWA Raged at Skeletor 1,006,250 848 - 70 - 0 - 26 - 17 529 2020-12-07 22:49:45
362 Master Maid [FC] 2,265,760 1,447 - 18 - 0 - 0 - 2 1,465 2020-12-05 21:07:39
880 Lawn Wake IX 1,430,650 1,119 - 10 - 0 - 21 - 2 819 2020-12-05 21:04:51
320 Yaunryu ~Yamikaze~ [FC] 3,225,385 2,072 - 10 - 1 - 0 - 1 2,083 2020-12-05 21:00:29
339 Famicom Selecta [FC] 1,800,155 1,154 - 9 - 0 - 0 - 1 1,163 2020-12-05 20:53:27
1,013 Face in the Gutter 1,053,005 754 - 9 - 0 - 23 - 2 643 2020-12-05 20:49:51
1,325 Face in the Gutter 792,340 504 - 7 - 3 - 3 - 1 514 2020-12-05 20:48:13
194 Zauberkugel 1,632,115 1,380 - 15 - 0 - 3 - 4 870 2020-12-05 20:44:43
116 Before Cynthia 1,055,140 1,067 - 9 - 1 - 4 - 0 467 2020-12-05 20:42:06
1,802 Poppin' Shower 168,085 108 - 3 - 0 - 10 - 2 111 2020-12-05 20:40:08
295 Poppin' Shower 1,446,255 1,289 - 7 - 0 - 2 - 0 736 2020-12-05 20:38:46
373 Poppin' Shower 1,840,310 1,282 - 14 - 0 - 2 - 1 1,132 2020-12-05 20:34:46
428 Phalanx 872,755 798 - 20 - 1 - 2 - 4 429 2020-12-05 20:32:07
367 spaceman 2,124,285 1,559 - 11 - 2 - 4 - 3 1,265 2020-12-05 20:24:27
113 Devilz Sacrifice -shokuzai no hitsuji- [FC] 1,973,845 1,258 - 18 - 1 - 0 - 3 1,277 2020-12-05 20:21:18
11,506 Xeno-Flow 930 1 - 0 - 0 - 2 - 0 1 2020-12-05 20:17:59
149 summerghost [FC] 1,512,525 975 - 1 - 0 - 0 - 0 976 2020-12-05 20:10:56
264 Oops 1,560,750 1,392 - 4 - 0 - 3 - 1 795 2020-12-05 20:08:21
1,301 Arrogant Cobbler 1,142,820 854 - 9 - 1 - 11 - 0 674 2020-12-05 20:05:19
276 Epilogue [FC] 1,474,775 949 - 3 - 0 - 0 - 0 952 2020-12-05 20:02:40
260 Quark [FC] 1,826,265 1,171 - 8 - 1 - 0 - 2 1,180 2020-12-05 20:00:43
2,027 Papyrus's Adventure 1,316,005 844 - 11 - 0 - 20 - 1 855 2020-12-05 19:57:22
991 Papyrus's Adventure 1,383,835 1,150 - 14 - 1 - 5 - 1 749 2020-12-05 19:55:08
3,945 Bus Rides With People 167,500 129 - 4 - 0 - 5 - 0 97 2020-12-05 19:52:06
1,274 Keep In Mind 1,966,685 1,278 - 11 - 0 - 4 - 0 1,262 2020-12-05 19:50:54
317 Toki 1,826,150 1,227 - 14 - 2 - 2 - 2 1,148 2020-12-05 19:47:25
877 Requiem -Dies irae- 1,001,285 752 - 36 - 1 - 7 - 5 580 2020-12-05 19:44:28
5,711 Perfect Cherry Storm 408,560 314 - 6 - 0 - 9 - 0 237 2020-12-05 19:40:41
1 Flounder [AAA] [FC] 2,703,200 1,744 - 0 - 0 - 0 - 0 1,744 2020-12-05 19:19:58
268 Bloody Tears [FC] 2,668,660 1,712 - 11 - 1 - 0 - 1 1,724 2020-12-05 19:15:26
304 Bloody Tears 1,965,765 1,710 - 13 - 0 - 1 - 0 1,022 2020-12-05 19:12:07
532 Epidermis 1,884,390 1,272 - 4 - 0 - 1 - 0 1,184 2020-12-05 19:08:06
1,443 Club 517,255 515 - 36 - 13 - 9 - 41 227 2020-12-05 19:03:26
1,123 Exciting Hyper Highspeed Star 1,743,730 1,308 - 28 - 0 - 1 - 3 1,017 2020-12-05 18:59:21
360 Flesvelka 1,586,490 1,614 - 35 - 3 - 6 - 7 691 2020-12-05 18:57:03
613 The Bird's Poisoned Bathwater 1,442,835 1,146 - 25 - 4 - 24 - 6 813 2020-12-05 18:53:33
680 The Bird's Poisoned Bathwater 1,249,995 801 - 19 - 0 - 18 - 10 810 2020-12-05 18:50:34
295 The Bird's Poisoned Bathwater 1,941,550 1,382 - 17 - 3 - 1 - 4 1,177 2020-12-05 18:45:42
345 The Bird's Poisoned Bathwater 1,570,700 1,370 - 30 - 0 - 3 - 6 810 2020-12-05 18:42:12
554 Double Helix 1,583,865 2,005 - 167 - 18 - 20 - 30 441 2020-12-05 18:38:47
471 Ah Shwe Bah 1,245,900 1,405 - 71 - 7 - 8 - 14 456 2020-12-05 18:35:26
668 Cold Heart 1,087,245 702 - 29 - 2 - 22 - 6 700 2020-12-05 18:32:59
579 Cold Heart 990,440 897 - 22 - 4 - 26 - 6 499 2020-12-05 18:31:20
673 Cold Heart 847,625 691 - 33 - 0 - 24 - 3 466 2020-12-05 18:29:27
298 Cold Heart 1,177,940 1,013 - 18 - 4 - 4 - 7 617 2020-12-05 18:27:16
380 Cold Heart 1,077,525 986 - 44 - 3 - 6 - 9 525 2020-12-05 18:25:21
380 Cold Heart 1,171,050 987 - 41 - 7 - 4 - 11 618 2020-12-05 18:23:22
390 Holy Orders 2,247,795 2,715 - 33 - 2 - 8 - 8 748 2020-12-05 18:21:10
725 Music (For Kirby) 1,313,355 1,563 - 202 - 13 - 32 - 32 408 2020-12-05 18:15:04
714 Music (For Kirby) 1,296,290 1,579 - 185 - 13 - 33 - 26 387 2020-12-05 18:12:08
931 All your base are belong to ME 403,095 443 - 64 - 7 - 30 - 12 151 2020-12-05 18:09:18
865 You're gonna love my nuts 67,395 56 - 7 - 0 - 1 - 1 35 2020-12-05 18:08:20
652 La Campanella 1,864,715 2,638 - 195 - 12 - 43 - 57 374 2020-12-05 18:01:29
1,414 Fushigi Usagi Milk Tei 907,370 1,092 - 84 - 2 - 30 - 7 293 2020-12-05 17:56:24
376 Fushigi Usagi Milk Tei 1,324,875 1,674 - 88 - 5 - 20 - 5 386 2020-12-05 17:49:36
404 Fushigi Usagi Milk Tei 1,233,545 1,662 - 99 - 4 - 22 - 9 299 2020-12-05 17:44:47
976 Magical 8bit Tour 1,800,835 1,693 - 117 - 12 - 41 - 22 850 2020-12-05 17:42:09
669 System Doctor 1,540,090 1,820 - 136 - 14 - 46 - 41 516 2020-12-05 17:39:08
463 System Doctor 1,596,940 1,907 - 140 - 12 - 21 - 28 516 2020-12-05 17:35:05
269 OWA Raged at Kurorak for Making OWA Raged at Skeletor 1,275,825 1,629 - 378 - 57 - 67 - 122 296 2020-12-05 17:31:17
292 OWA Raged at Kurorak for Making OWA Raged at Skeletor 1,133,615 1,555 - 418 - 79 - 79 - 122 186 2020-12-05 17:26:31
539 Closer to the Core 1,090,380 790 - 14 - 0 - 3 - 2 653 2020-12-05 17:22:51
1,339 Velaciela 389,130 249 - 6 - 0 - 11 - 3 254 2020-12-05 17:20:19
1 Dancing On Blades [AAA] [FC] 1,105,150 713 - 0 - 0 - 0 - 0 713 2020-12-05 17:17:56
1 Star Wars Anthology [AAA] [FC] 2,015,000 1,300 - 0 - 0 - 0 - 0 1,300 2020-12-05 17:14:37
6,859 Butterflies (Short Edit) 432,485 279 - 1 - 0 - 4 - 0 280 2020-12-05 17:10:57
1 Want You Gone [AAA] [FC] 1,413,600 912 - 0 - 0 - 0 - 0 912 2020-12-05 17:08:46
309 Laser Shooter [FC] 1,196,050 770 - 2 - 0 - 0 - 0 772 2020-12-05 17:06:14
2,455 Infiltration 765,705 652 - 1 - 0 - 7 - 0 409 2020-12-04 16:18:22
1,667 Angel Island Remix 1,476,940 1,073 - 12 - 0 - 21 - 0 890 2020-12-04 16:13:29
7,019 Dead and Direct 386,295 275 - 7 - 2 - 3 - 3 234 2020-12-04 16:11:09
763 dr1 741,675 520 - 61 - 6 - 7 - 13 441 2020-12-04 16:08:21
2,687 Club 528,565 472 - 42 - 7 - 21 - 23 264 2020-12-04 16:06:51
1,589 Club 511,655 507 - 43 - 2 - 19 - 12 227 2020-12-04 16:05:21
1,087 Club 683,115 527 - 33 - 4 - 9 - 12 387 2020-12-04 16:03:59
1,627 Fish Hell 783,820 503 - 4 - 0 - 3 - 0 507 2020-12-04 16:02:00
181 Bowser the Shredder [FC] 1,889,075 1,213 - 7 - 0 - 0 - 0 1,220 2020-12-04 15:58:37
2,322 Bowser the Shredder 4,065 5 - 1 - 0 - 16 - 0 6 2020-12-04 15:55:04
1,591 Bowser the Shredder 929,310 597 - 8 - 0 - 20 - 2 605 2020-12-04 15:54:00
42 Sail On [FC] 2,546,275 1,637 - 7 - 0 - 0 - 0 1,644 2020-12-04 15:48:00
123 Sail On 2,196,400 1,413 - 9 - 1 - 20 - 4 1,423 2020-12-04 15:40:48
353 The Lunatic Princess [FC] 4,010,985 2,582 - 7 - 0 - 0 - 2 2,589 2020-12-04 15:36:33
3,304 Run Through The Stream Of Time 583,250 373 - 4 - 0 - 0 - 0 377 2020-12-04 15:31:42
3,804 Run Through The Stream Of Time 391,525 256 - 1 - 0 - 21 - 2 257 2020-12-04 15:30:31
262 World Revolution [FC] 1,652,865 1,059 - 9 - 0 - 0 - 3 1,068 2020-12-04 15:29:11
6,755 Exciting Hyper Highspeed Star 1,032,015 808 - 51 - 0 - 27 - 2 582 2020-12-04 15:25:40
1,425 Grocery Escape Plan 690,205 564 - 21 - 0 - 25 - 1 382 2020-12-04 15:23:55
265 Largiloquent Dithyramb 2,104,020 1,590 - 14 - 0 - 1 - 1 1,226 2020-12-04 15:22:28
299 Largiloquent Dithyramb 2,203,390 1,588 - 16 - 0 - 1 - 5 1,326 2020-12-04 15:12:03
4,909 Largiloquent Dithyramb 54,320 36 - 6 - 0 - 23 - 0 40 2020-12-04 15:05:24
3,952 Largiloquent Dithyramb 539,715 356 - 22 - 7 - 24 - 4 345 2020-12-04 14:29:32
5,106 Largiloquent Dithyramb 1,860 4 - 0 - 0 - 14 - 0 4 2020-12-04 14:27:55
154 Humanism [FC] 2,361,610 1,522 - 2 - 0 - 0 - 2 1,524 2020-12-02 22:26:03
151 Mongoloid Alien 2,236,850 1,447 - 19 - 1 - 4 - 2 1,437 2020-12-02 22:19:21
1 Boot [AAA] [FC] 1,807,300 1,166 - 0 - 0 - 0 - 0 1,166 2020-12-02 22:11:41
649 Tightwad 3,100 2 - 0 - 0 - 0 - 0 2 2020-12-02 22:04:24
350 Rudi the Techno Pioneer 722,565 586 - 7 - 0 - 2 - 2 399 2020-12-02 22:02:35
86 Rudi the Techno Pioneer 1,583,835 1,620 - 9 - 0 - 2 - 1 691 2020-12-02 21:52:36
305 Rudi the Techno Pioneer 2,145,335 1,383 - 9 - 2 - 22 - 4 1,389 2020-12-02 21:49:13
267 Le carnaval des animaux, Movement no. 14 ''Finale" 1,219,935 1,160 - 69 - 2 - 13 - 6 567 2020-12-02 21:45:20
116 Handle Your Business 1,949,430 1,252 - 24 - 2 - 22 - 3 1,261 2020-12-02 21:43:13
44 Handle Your Business 2,057,835 1,457 - 25 - 0 - 1 - 4 1,250 2020-12-02 21:40:49
2,613 The Adventures Of Lolo 302,880 365 - 42 - 2 - 27 - 8 99 2020-12-02 21:38:03
629 NaiNai 69 1,055,870 1,252 - 53 - 7 - 11 - 14 356 2020-12-02 21:36:08
583 Divinity Garden 290,175 242 - 7 - 0 - 9 - 3 158 2020-12-02 21:34:18
173 No Purpose Flour 1,767,745 1,632 - 9 - 0 - 1 - 1 868 2020-12-02 21:26:15
415 Diamante Spectrasplosion 1,187,410 1,062 - 49 - 5 - 4 - 10 591 2020-12-02 21:23:02
470 Djentrap 1,558,220 1,654 - 24 - 0 - 26 - 1 650 2020-12-02 21:20:54
240 Djentrap 1,896,600 1,707 - 28 - 0 - 3 - 1 951 2020-12-02 21:17:36
431 Pandemonium 1,189,585 1,474 - 73 - 2 - 10 - 10 362 2020-12-02 21:14:33
978 Breakcore Ein Prosit 113,450 103 - 12 - 0 - 8 - 1 56 2020-12-02 21:11:45
686 The Bird's Poisoned Bathwater 1,174,165 747 - 15 - 2 - 6 - 3 761 2020-12-02 21:10:39
566 The Bird's Poisoned Bathwater 1,495,500 1,242 - 31 - 3 - 23 - 8 811 2020-12-02 21:08:53
560 The Bird's Poisoned Bathwater 1,683,630 1,247 - 34 - 2 - 2 - 3 989 2020-12-02 21:06:15
322 Ascension to Heaven 1,127,660 1,412 - 118 - 6 - 14 - 19 323 2020-12-02 21:03:31
1,726 All i wanna do is touch your powerpoints 1,332,995 1,272 - 29 - 2 - 31 - 4 635 2020-12-02 21:00:40
273 8bit Adventurer 1,457,250 1,578 - 80 - 6 - 12 - 13 571 2020-12-02 20:58:09
529 Return to Fire 38,165 24 - 1 - 0 - 1 - 0 25 2020-12-02 20:55:13
861 Piano Concerto 1 'ANTI-ARES' (For Kirby) 2,182,980 1,786 - 30 - 2 - 2 - 3 1,193 2020-12-02 20:54:49
419 Piano Concerto 1 'ANTI-ARES' (For Kirby) 2,479,920 1,824 - 23 - 1 - 2 - 2 1,471 2020-12-02 20:44:10
270 Maybe All This Time I Was Wrong 1,302,895 1,471 - 106 - 7 - 43 - 18 478 2020-12-02 20:39:32
571 Maybe All This Time I Was Wrong 199,710 128 - 2 - 0 - 4 - 0 130 2020-12-02 20:36:04
238 Maybe All This Time I Was Wrong 1,322,105 1,537 - 102 - 9 - 21 - 14 455 2020-12-02 20:35:24
305 Unicron Barbeque 2,331,965 1,895 - 57 - 2 - 3 - 7 1,275 2020-12-02 20:32:43
939 Overklock 654,635 421 - 7 - 2 - 3 - 1 422 2020-12-02 20:29:43
147 Overklock [FC] 2,320,205 1,483 - 17 - 0 - 0 - 6 1,500 2020-12-02 20:28:21
475 MEPHISTO 1,667,690 1,562 - 60 - 2 - 6 - 8 794 2020-12-02 20:25:34
199 Swamp Thing 2,201,630 1,672 - 36 - 0 - 9 - 4 1,275 2020-12-02 20:22:24
708 Ambient Angels 1,895,220 1,250 - 23 - 1 - 2 - 2 1,202 2020-12-02 20:17:50
768 Mellann 1,387,165 890 - 7 - 0 - 4 - 1 897 2020-12-02 20:15:37
2,283 BLUE ARMY 439,800 279 - 5 - 1 - 0 - 4 285 2020-12-02 20:13:12
55 Fake Santa [FC] 2,308,555 1,482 - 9 - 0 - 0 - 1 1,491 2020-12-02 20:11:28
97 Sail On 2,289,105 1,537 - 7 - 0 - 23 - 2 1,449 2020-12-02 20:05:21
404 Your Lies 1,302,650 839 - 2 - 0 - 1 - 2 841 2020-12-02 20:01:57
1 A Beautiful Storm [AAA] [FC] 1,131,500 730 - 0 - 0 - 0 - 0 730 2020-12-02 19:58:40
24,526 {Firestorm} 498,785 321 - 1 - 0 - 0 - 2 322 2020-12-02 19:56:08
745 A Baptist Church in Georgia 96,100 62 - 0 - 0 - 0 - 0 62 2020-12-02 19:54:33
14,969 Domani 250,205 161 - 1 - 0 - 2 - 0 162 2020-12-02 19:53:56
1 The Hop [AAA] [FC] 962,550 621 - 0 - 0 - 0 - 0 621 2020-12-02 19:52:43
25,779 {Firestorm} 382,300 245 - 2 - 0 - 0 - 0 247 2020-12-02 19:50:36
556 Runs from the Rain 401,175 258 - 1 - 0 - 0 - 0 259 2020-12-02 19:49:56
15,223 Black Wing Metamorphosis 829,905 535 - 1 - 0 - 2 - 0 536 2020-12-02 19:48:37
6,133 Betrayal of Fate 726,675 468 - 1 - 0 - 0 - 0 469 2020-12-02 19:47:00
27,973 Visions (NRGyzd Remix) 107,330 68 - 2 - 0 - 2 - 0 70 2020-12-02 19:45:43
290 Preset Junkies VIP 358,705 231 - 1 - 0 - 2 - 0 232 2020-12-02 19:45:13
59 A Firebrand, An Agitator [FC] 928,175 598 - 1 - 0 - 0 - 0 599 2020-12-02 19:44:04
332 Rudi the Techno Pioneer 1,450,090 937 - 8 - 2 - 21 - 3 939 2020-11-29 20:58:01
295 Rudi the Techno Pioneer 2,041,135 1,454 - 12 - 1 - 22 - 5 1,245 2020-11-29 20:55:31
1,934 October 2,141,520 1,372 - 24 - 0 - 2 - 3 1,381 2020-11-29 20:51:00
2,384 Sonic the Hedgehog Dubstep Remix 549,440 364 - 2 - 0 - 1 - 0 349 2020-11-29 20:47:15
4,960 going on -spring wind- 852,920 644 - 6 - 0 - 3 - 0 498 2020-11-29 20:45:47
6,098 Rottel-da-station 68,950 47 - 6 - 0 - 5 - 0 43 2020-11-29 20:44:00
814 Seedy Try 658,455 424 - 1 - 0 - 0 - 1 425 2020-11-29 20:42:47
563 Seedy Try 1,501,655 972 - 1 - 0 - 20 - 1 973 2020-11-29 20:37:24
616 Tightwad 139,225 89 - 1 - 0 - 0 - 0 90 2020-11-29 20:35:48
571 Tightwad 287,695 189 - 1 - 0 - 21 - 1 190 2020-11-29 20:32:52
472 Tightwad 1,048,525 678 - 3 - 0 - 20 - 0 681 2020-11-29 20:29:18
47 Tightwad [FC] 1,312,575 846 - 1 - 0 - 0 - 0 847 2020-11-29 20:22:53
101 Tightwad [FC] 1,311,015 842 - 3 - 2 - 0 - 1 847 2020-11-29 20:20:58
302 Breakout [Heavy] 1,365,185 1,247 - 7 - 0 - 5 - 2 679 2020-11-29 20:12:20
4,017 Toxiferous Dystopia 643,300 428 - 8 - 0 - 4 - 3 407 2020-11-29 20:00:53
4,070 Toxiferous Dystopia 625,925 403 - 7 - 0 - 15 - 0 407 2020-11-29 19:59:21
256 Toxiferous Dystopia 1,790,465 1,449 - 4 - 1 - 2 - 1 993 2020-11-29 19:53:27
342 Toxiferous Dystopia 1,693,650 1,441 - 12 - 2 - 1 - 0 898 2020-11-29 19:50:22
1,536 Magnum 806,780 680 - 10 - 0 - 3 - 2 431 2020-11-29 19:45:50
814 Piano Etude (Gymnastics) 1,343,885 1,221 - 25 - 2 - 5 - 5 667 2020-11-29 19:42:53
611 The Bird's Poisoned Bathwater 1,117,855 1,126 - 37 - 4 - 12 - 6 492 2020-11-29 19:39:19
1,030 Einstein-Rosen Bridge 134,300 86 - 2 - 0 - 5 - 0 88 2020-11-29 19:36:37
731 Einstein-Rosen Bridge 1,597,955 1,080 - 16 - 1 - 24 - 3 1,007 2020-11-29 19:36:14
226 Einstein-Rosen Bridge 1,407,410 1,269 - 6 - 0 - 7 - 1 710 2020-11-29 19:30:02
211 Einstein-Rosen Bridge 1,574,540 1,269 - 8 - 0 - 5 - 3 876 2020-11-29 19:26:21
263 Einstein-Rosen Bridge 1,255,100 1,261 - 15 - 1 - 5 - 4 559 2020-11-29 19:19:38
486 Sokuseki! Nouchoku Music System 1,411,685 1,448 - 110 - 1 - 22 - 10 592 2020-11-29 19:16:58
1,549 I Hate The 80s 769,890 871 - 41 - 1 - 11 - 4 283 2020-11-29 19:14:11
1,788 I Hate The 80s 750,040 851 - 34 - 0 - 30 - 3 282 2020-11-29 19:12:22
246 RAN 2,011,480 1,730 - 19 - 1 - 4 - 3 1,056 2020-11-29 19:07:24
1,211 RAN 1,473,910 1,487 - 34 - 2 - 30 - 5 656 2020-11-29 19:03:18
351 RAN 1,548,320 1,709 - 40 - 0 - 5 - 4 599 2020-11-29 18:57:08
371 RAN 1,546,145 1,705 - 42 - 3 - 4 - 4 598 2020-11-29 18:53:26
395 RAN 2,001,550 1,696 - 51 - 3 - 4 - 10 1,056 2020-11-29 18:48:36
2,970 La Campanella 1,699,770 1,695 - 171 - 7 - 73 - 13 743 2020-11-29 18:44:30
706 La Campanella 2,220,450 2,618 - 205 - 5 - 60 - 25 743 2020-11-29 18:41:16
506 Extratone Pirates (Drunk Optimus Remix) 1,152,205 1,514 - 284 - 29 - 53 - 38 257 2020-11-29 18:36:07
359 Herbie Goes Ballistic 2,640,860 3,537 - 300 - 12 - 35 - 40 624 2020-11-29 18:31:18
503 Real 1,118,950 814 - 80 - 12 - 23 - 14 656 2020-11-29 18:26:11
313 Real 1,246,285 1,058 - 56 - 5 - 13 - 13 653 2020-11-29 18:24:39
306 Real 1,290,105 1,058 - 55 - 14 - 5 - 7 694 2020-11-29 18:22:37
318 Real 1,264,350 1,044 - 76 - 6 - 6 - 11 671 2020-11-29 18:20:25
54 Edible Flower Monologue [FC] 1,921,035 1,232 - 9 - 0 - 0 - 2 1,241 2020-11-29 18:17:53
250 Fish Hell 2,005,775 1,843 - 9 - 0 - 1 - 2 990 2020-11-29 18:15:05
137 Crimson Rider 2,125,485 1,363 - 10 - 1 - 3 - 2 1,374 2020-11-29 18:11:13
96 It's Over [FC] 1,715,730 1,102 - 6 - 0 - 0 - 1 1,108 2020-11-29 18:07:58
378 Starlight [Macgravel] [FC] 1,098,675 708 - 1 - 0 - 0 - 0 709 2020-11-29 18:00:57
1 {Evolution} Out Stage [AAA] [FC] 1,350,050 871 - 0 - 0 - 0 - 0 871 2020-11-29 17:55:22
1 Wild Sky [AAA] [FC] 850,950 549 - 0 - 0 - 0 - 0 549 2020-11-29 17:52:53
1 Dazzling Soul [AAA] [FC] 1,551,550 1,001 - 0 - 0 - 0 - 0 1,001 2020-11-29 17:51:05
2,187 Destination Unknown 1,062,750 688 - 2 - 0 - 20 - 0 690 2020-11-29 17:49:03
1,354 World Revolution 716,105 568 - 25 - 0 - 23 - 2 404 2020-11-27 19:44:20
73 Lycanthrope [FC] 1,614,725 1,036 - 7 - 0 - 0 - 0 1,043 2020-11-27 19:37:40
2,393 2008 1,496,015 963 - 1 - 2 - 0 - 1 966 2020-11-27 19:30:18
321 16bitFruit [FC] 1,133,755 729 - 3 - 0 - 0 - 1 732 2020-11-27 19:27:02
1 Right Now BLUE Ver. [AAA] [FC] 1,098,950 709 - 0 - 0 - 0 - 0 709 2020-11-27 19:22:02
704 The Hop 494,175 322 - 1 - 0 - 20 - 0 323 2020-11-27 19:17:35
228 Zion [FC] 1,323,130 852 - 2 - 0 - 0 - 1 854 2020-11-27 19:15:45
1 TURBO [Tokyo Machine] [Standard] [AAA] [FC] 1,085,000 700 - 0 - 0 - 0 - 0 700 2020-11-27 19:10:10
1 Platforms & Pitfalls [AAA] [FC] 922,250 595 - 0 - 0 - 0 - 0 595 2020-11-27 19:07:04
323 Illumination of the Sky 1,645,840 1,092 - 2 - 0 - 1 - 0 1,045 2020-11-25 22:01:26
129 Quad Queens [FC] 1,905,105 1,225 - 5 - 0 - 0 - 1 1,230 2020-11-25 21:50:55
339 Just Hold On 2,432,055 1,569 - 9 - 0 - 1 - 3 1,567 2020-11-25 21:45:29
50 anqad [Heavy] [FC] 1,623,850 1,046 - 2 - 0 - 0 - 0 1,048 2020-11-25 21:29:49
167 Caprice for Violin in B minor Theme and Variations 1,897,090 1,486 - 4 - 0 - 1 - 0 1,079 2020-11-25 21:24:33
165 Serenade [FC] 1,387,425 891 - 5 - 0 - 0 - 0 896 2020-11-25 21:13:40
163 Go *60* Go [FC] 2,443,460 1,570 - 7 - 1 - 0 - 1 1,578 2020-11-25 21:09:46
82 The Big Sleep [FC] 2,722,525 1,754 - 3 - 0 - 0 - 0 1,757 2020-11-25 21:01:45
476 Counter Strike Gun Sounds 585,495 497 - 3 - 0 - 2 - 3 312 2020-11-25 20:53:48
169 Aerospace [FC] 1,530,575 985 - 3 - 0 - 0 - 0 988 2020-11-25 20:47:57
689 Aerospace 1,407,255 940 - 10 - 1 - 21 - 2 894 2020-11-25 20:45:33
95 Nightfall (Original Mix) [FC] 1,526,200 983 - 2 - 0 - 0 - 0 985 2020-11-25 20:39:52
617 Guitars Suck 1,228,945 1,130 - 54 - 3 - 21 - 3 599 2020-11-25 20:35:27
881 Buzzards 923,045 587 - 9 - 2 - 1 - 4 598 2020-11-25 20:25:52
255 Buzzards 997,685 777 - 6 - 1 - 1 - 3 569 2020-11-25 20:18:26
1 CG901B (remixing ver.) [AAA] [FC] 2,143,650 1,383 - 0 - 0 - 0 - 0 1,383 2020-11-25 20:15:07
4 CG901B (remixing ver.) [FC] 2,143,375 1,382 - 1 - 0 - 0 - 0 1,383 2020-11-25 20:11:32
35 Trip to the Moon (Club Remix) v2 [FC] 982,425 633 - 1 - 0 - 0 - 0 634 2020-11-25 20:05:58
807 Twister 1,214,355 1,276 - 101 - 6 - 33 - 16 495 2020-11-25 20:02:41
749 Weapon 2,162,060 2,122 - 94 - 10 - 36 - 14 980 2020-11-25 19:56:14
4,355 Toxiferous Dystopia 443,905 285 - 7 - 2 - 6 - 1 287 2020-11-25 19:48:06
274 Skeletor 1,964,100 1,333 - 12 - 0 - 1 - 2 1,228 2020-11-25 19:37:23
1,445 Skeletor 1,674,530 1,189 - 26 - 2 - 2 - 3 1,014 2020-11-25 19:34:23
362 Skeletor 1,961,605 1,324 - 21 - 0 - 1 - 3 1,228 2020-11-25 19:31:50
395 Skeletor 1,876,195 1,321 - 23 - 0 - 2 - 3 1,144 2020-11-25 19:27:59
1,062 Mermaid Island 823,550 776 - 31 - 1 - 9 - 2 391 2020-11-25 19:17:04
1,137 Flesvelka 752,695 477 - 11 - 0 - 2 - 3 488 2020-11-25 19:14:51
357 Flesvelka 1,528,750 1,614 - 36 - 2 - 6 - 5 633 2020-11-25 19:13:48
368 Flesvelka 1,753,335 1,611 - 38 - 5 - 4 - 10 858 2020-11-25 19:11:01
342 Flesvelka 1,625,630 1,613 - 42 - 0 - 3 - 7 728 2020-11-25 19:06:08
369 Flesvelka 1,382,340 1,611 - 38 - 2 - 7 - 5 488 2020-11-25 19:03:03
357 Flesvelka 1,528,405 1,614 - 36 - 1 - 7 - 4 633 2020-11-25 19:00:06
777 Happy Meal 1,264,040 929 - 29 - 1 - 6 - 4 747 2020-11-25 18:52:05
1,464 Feldschlacht (j.z. mix) 1,992,510 1,456 - 18 - 2 - 1 - 2 1,187 2020-11-25 18:49:09
850 Keep In Mind 2,014,395 1,333 - 11 - 4 - 22 - 9 1,285 2020-11-25 18:42:11
262 It's Over 1,086,790 689 - 15 - 1 - 4 - 5 705 2020-11-25 18:38:27
151 ORIENTAL SEA!! 1,761,390 1,192 - 4 - 0 - 1 - 0 1,105 2020-11-25 18:34:34
191 ORIENTAL SEA!! 1,256,030 1,188 - 7 - 1 - 1 - 2 601 2020-11-25 18:31:34
206 ORIENTAL SEA!! 1,255,465 1,185 - 11 - 0 - 1 - 0 601 2020-11-25 18:28:20
135 rainy beauty [Heavy] 1,404,055 1,264 - 30 - 1 - 1 - 7 701 2020-11-25 18:24:49
568 Captain Murasa's Ass Anchor 894,900 795 - 7 - 1 - 1 - 1 456 2020-11-25 18:20:21
939 Extreme Dishwasher Race 1,389,330 977 - 8 - 2 - 1 - 1 850 2020-11-25 18:16:12
2,086 Extreme Dishwasher Race 1,144,650 836 - 18 - 2 - 23 - 4 687 2020-11-25 18:12:38
993 NKS2 (Ain't No Half-Steppin' Remix) 681,205 464 - 3 - 0 - 22 - 0 432 2020-11-25 18:01:06
1,060 NKS2 (Ain't No Half-Steppin' Remix) 494,170 343 - 6 - 0 - 23 - 0 311 2020-11-25 17:54:20
390 Unicron Barbeque 2,064,375 1,847 - 48 - 7 - 6 - 10 1,037 2020-11-24 21:27:18
67 THE FAUST 611,645 534 - 32 - 1 - 25 - 8 317 2020-11-24 21:20:45
48 THE FAUST 1,260,930 1,196 - 30 - 0 - 10 - 1 598 2020-11-24 21:12:37
47 THE FAUST 1,234,460 1,198 - 31 - 1 - 6 - 8 569 2020-11-24 21:09:01
413 0 (piano version) [FC] 1,748,535 1,124 - 5 - 0 - 0 - 2 1,129 2020-11-24 21:04:19
1,045 Zeitmesser 500,895 318 - 7 - 0 - 3 - 0 325 2020-11-24 21:01:09
2,427 Tamashii 650,415 423 - 1 - 0 - 21 - 0 424 2020-11-24 20:57:21
2,940 Tamashii 230,675 152 - 1 - 0 - 20 - 0 153 2020-11-24 20:55:51
205 Foam Born (A) The Backtrack [FC] 1,517,680 966 - 16 - 0 - 0 - 1 982 2020-11-24 20:54:44
2,218 VS PSYCHOSHY 382,865 247 - 1 - 0 - 4 - 1 248 2020-11-24 20:51:11
1,597 VS PSYCHOSHY 976,135 626 - 4 - 3 - 1 - 6 631 2020-11-24 20:43:47
796 Shade of Gloria 839,550 540 - 2 - 0 - 0 - 0 542 2020-11-24 20:40:56
3,192 Phantom Ensemble 497,895 321 - 1 - 0 - 3 - 0 322 2020-11-24 20:37:28
4,311 Phantom Ensemble 3,100 5 - 0 - 0 - 15 - 0 5 2020-11-24 20:36:10
211 Phantom Ensemble [FC] 1,847,050 1,190 - 2 - 0 - 0 - 0 1,192 2020-11-24 20:35:04
1 KlungKung 2004 [AAA] [FC] 2,585,400 1,668 - 0 - 0 - 0 - 0 1,668 2020-11-24 20:28:41
989 He's a Pirate - F-777 ReMiX 1,040,065 947 - 4 - 3 - 3 - 6 519 2020-11-24 20:23:09
208 center piercing 1,445,790 1,119 - 6 - 0 - 1 - 0 829 2020-11-24 20:20:17
9,213 Pimp Slap 182,500 118 - 2 - 0 - 3 - 1 118 2020-11-24 20:17:05
310 Pimp Slap [FC] 1,097,105 707 - 1 - 0 - 0 - 1 708 2020-11-24 20:15:41
211 spanish [FC] 2,122,830 1,363 - 8 - 0 - 0 - 1 1,371 2020-11-24 20:11:42
254 spanish 1,910,475 1,361 - 8 - 1 - 1 - 1 1,160 2020-11-24 20:08:45
80 RENDEZVOUS [FC] 1,725,030 1,108 - 6 - 0 - 0 - 1 1,114 2020-11-24 20:02:16
1,944 Romance in the Club 411,585 254 - 15 - 0 - 4 - 0 269 2020-11-24 19:52:16
2,074 Devilz Staircase 643,560 550 - 13 - 1 - 21 - 3 344 2020-11-24 19:50:01
1,254 Futsuu No Uta 895,645 572 - 23 - 0 - 20 - 4 581 2020-11-24 19:46:52
707 Chronostasis 1,383,605 1,350 - 7 - 0 - 22 - 0 646 2020-11-24 18:46:28
245 Gourmet Na Aitsu 1,658,740 1,565 - 24 - 0 - 5 - 3 793 2020-11-24 18:43:20
213 Pollyanna Rocks Your World 1,541,365 1,439 - 52 - 3 - 11 - 7 739 2020-11-24 18:39:23
2,568 Church Bells 972,535 861 - 19 - 0 - 4 - 0 495 2020-11-24 18:34:12
758 Men & Machines [Redemption] 1,334,325 852 - 10 - 1 - 0 - 4 863 2020-11-24 18:31:48
2,023 Boot 660,060 434 - 0 - 0 - 2 - 1 422 2020-11-24 18:26:31
162 Handle Your Business 367,840 231 - 8 - 0 - 1 - 5 239 2020-11-24 18:23:57
378 Rudi the Techno Pioneer 290,915 183 - 7 - 0 - 2 - 2 189 2020-11-24 18:19:25
106 Rudi the Techno Pioneer 1,727,025 1,615 - 15 - 0 - 1 - 2 835 2020-11-24 18:09:02
144 Rudi the Techno Pioneer 1,627,740 1,612 - 14 - 0 - 5 - 8 739 2020-11-24 18:06:03
57 THE FAUST 1,015,030 1,119 - 56 - 6 - 29 - 8 393 2020-11-24 17:58:43
47 THE FAUST 1,065,655 1,189 - 37 - 2 - 8 - 5 404 2020-11-24 17:51:10
442 Unicron Barbeque 2,692,890 1,769 - 41 - 1 - 1 - 4 1,709 2020-11-24 17:45:45
365 Mix a Little Foolishness 708,660 809 - 158 - 6 - 25 - 16 228 2020-11-24 17:40:04
395 Breakbeat Acid 1,065,715 798 - 117 - 10 - 41 - 10 607 2020-11-24 17:35:10
721 All your base are belong to ME 746,415 943 - 249 - 30 - 82 - 47 184 2020-11-24 17:32:26
1,428 Fushigi Usagi Milk Tei 976,940 1,073 - 103 - 1 - 27 - 11 367 2020-11-24 17:21:25
827 Magical 8bit Tour 1,818,115 1,721 - 118 - 3 - 35 - 10 850 2020-11-24 17:17:26
818 We Are The Vampires 1,219,985 824 - 9 - 2 - 2 - 9 765 2020-11-24 17:13:28
110 RENDEZVOUS [FC] 1,722,175 1,099 - 14 - 1 - 0 - 9 1,114 2020-11-24 17:11:20
1,312 Sunny Funny Chiny 1,654,025 1,060 - 9 - 0 - 1 - 7 1,069 2020-11-24 17:08:29
126 Rearranger Re-Edit [FC] 1,611,605 1,034 - 7 - 0 - 0 - 1 1,041 2020-11-24 17:05:37
478 M.A.M.A. [FC] 1,955,135 1,254 - 9 - 0 - 0 - 2 1,263 2020-11-24 17:01:54
182 The Whip [FC] 1,987,825 1,280 - 3 - 0 - 0 - 0 1,283 2020-11-24 16:57:19
111 Obnoxious [FC] 664,535 423 - 7 - 0 - 0 - 2 430 2020-11-24 16:52:00
116 FrainBreeze [FC] 1,583,725 1,016 - 7 - 0 - 0 - 0 1,023 2020-11-24 16:48:51
324 Thrash the Plank 1,276,600 887 - 4 - 0 - 1 - 2 788 2020-11-24 16:45:54
734 Einstein-Rosen Bridge 1,013,040 1,052 - 36 - 0 - 14 - 6 429 2020-11-20 19:13:59
53 THE FAUST 863,505 713 - 37 - 2 - 9 - 7 464 2020-11-20 19:11:09
236 Run Away 1,237,835 1,103 - 13 - 0 - 1 - 4 628 2020-11-20 19:08:26
1,581 Gee (Areia Remix) 502,870 327 - 2 - 0 - 21 - 1 329 2020-11-20 18:58:58
1 Lunar Eclipse - a nation of moon #6 [AAA] [FC] 1,616,650 1,043 - 0 - 0 - 0 - 0 1,043 2020-11-20 18:56:21
1,889 Keep It Short 1,023,470 659 - 1 - 1 - 1 - 0 661 2020-11-20 18:50:47
6,957 Matador 703,110 456 - 2 - 0 - 20 - 2 458 2020-11-20 18:43:00
274 Find a Way Out 479,835 297 - 17 - 0 - 7 - 1 314 2020-11-18 20:41:39
352 Find a Way Out 96,265 63 - 1 - 0 - 2 - 2 62 2020-11-18 19:05:09
19 THE FAUST 1,009,905 1,119 - 69 - 4 - 44 - 5 389 2020-11-18 18:54:34
104 Benson & Hedges (Venetian Snares Remix) 863,120 806 - 13 - 1 - 25 - 3 424 2020-11-18 18:51:41
17 THE FAUST 817,220 845 - 51 - 5 - 9 - 2 341 2020-11-18 18:41:05
17 THE FAUST 1,010,470 1,122 - 49 - 5 - 30 - 4 389 2020-11-18 18:36:59
17 THE FAUST 1,059,745 1,174 - 57 - 0 - 5 - 4 400 2020-11-18 18:27:45
15 THE FAUST 1,538,025 1,178 - 49 - 4 - 5 - 1 878 2020-11-18 18:23:23
15 THE FAUST 1,058,560 1,168 - 54 - 2 - 12 - 4 405 2020-11-18 18:20:33
15 THE FAUST 1,182,785 1,167 - 53 - 4 - 12 - 7 530 2020-11-18 18:18:07
633 Real 306,980 197 - 8 - 2 - 2 - 3 197 2020-11-18 18:15:16
13 Viden 1,595,070 1,056 - 9 - 1 - 4 - 1 1,013 2020-11-18 18:11:59
10 Viden [FC] 1,689,675 1,086 - 5 - 0 - 0 - 0 1,091 2020-11-18 18:09:52
470 THE LITTLE MERMAID 519,970 438 - 5 - 1 - 4 - 6 279 2020-11-18 18:07:05
438 Gargoyle 2,105,315 1,453 - 14 - 1 - 2 - 6 1,303 2020-11-18 18:05:27
513 Sword Strike [FC] 1,032,280 666 - 0 - 0 - 0 - 1 666 2020-11-18 18:01:28
6,924 Teh Tricky Techno 574,500 373 - 2 - 0 - 20 - 0 375 2020-11-18 17:59:31
697 Teh Tricky Techno [FC] 732,875 472 - 1 - 0 - 0 - 0 473 2020-11-18 17:58:33
697 Teh Tricky Techno [FC] 732,875 472 - 1 - 0 - 0 - 0 473 2020-11-18 17:57:19
166 Unshakeable [Celldweller] [FC] 1,628,500 1,049 - 2 - 0 - 0 - 0 1,051 2020-11-18 17:56:13
1 Dreadnought [Standard] [AAA] [FC] 1,043,150 673 - 0 - 0 - 0 - 0 673 2020-11-18 17:52:58
1 The Basement Guitarist [AAA] [FC] 644,800 416 - 0 - 0 - 0 - 0 416 2020-11-18 17:50:23
60 The Basement Guitarist [FC] 644,525 415 - 1 - 0 - 0 - 0 416 2020-11-18 17:47:23
1 Smoke Weed Everyday [AAA] [FC] 954,800 616 - 0 - 0 - 0 - 0 616 2020-11-18 17:45:02
821 Amphisbaena 153,915 113 - 30 - 1 - 8 - 3 86 2020-11-15 19:05:55
1,871 October 2,080,795 1,382 - 31 - 4 - 3 - 6 1,313 2020-11-15 19:03:32
846 Lawn Wake II 721,160 830 - 92 - 2 - 15 - 5 244 2020-11-15 18:57:20
525 Epileptic Crisis [Oni] 776,725 1,076 - 220 - 9 - 43 - 37 138 2020-11-15 18:53:10
3,935 Magical 8bit Tour 130,630 96 - 16 - 0 - 5 - 1 75 2020-11-15 18:50:41
2,074 Magical 8bit Tour 1,379,240 1,077 - 124 - 6 - 36 - 19 764 2020-11-15 18:48:12
2,644 Magical 8bit Tour 767,995 677 - 33 - 2 - 24 - 5 394 2020-11-15 18:43:52
560 OWA Raged at Kurorak for Making OWA Raged at Skeletor 554,695 653 - 247 - 26 - 83 - 54 153 2020-11-15 18:39:49
8,199 Sympathizer 1,935,280 1,243 - 7 - 1 - 1 - 2 1,250 2020-11-15 18:34:38
1,194 Your One 1,079,005 694 - 13 - 2 - 4 - 7 695 2020-11-15 18:29:53
2,394 jelly 3,100 2 - 0 - 0 - 0 - 0 2 2020-11-15 18:19:24
150 Opia 876,815 566 - 7 - 0 - 11 - 0 567 2020-11-15 18:16:51
1 Forbidden Tracks [AAA] [FC] 1,787,150 1,153 - 0 - 0 - 0 - 0 1,153 2020-11-12 22:51:44
82 Forbidden Tracks [FC] 1,786,875 1,152 - 1 - 0 - 0 - 0 1,153 2020-11-12 22:49:00
222 Miraiya [FC] 1,714,750 1,103 - 4 - 0 - 0 - 0 1,107 2020-11-12 22:42:47
259 A Yodeler in Texas 1,336,155 1,189 - 3 - 0 - 2 - 0 682 2020-11-12 22:35:18
462 The Fated Hour 226,420 143 - 4 - 0 - 1 - 1 147 2020-11-12 22:31:42
2,694 System Failure 325,880 210 - 2 - 0 - 7 - 0 212 2020-11-12 22:27:42
161 System Failure [FC] 1,845,775 1,190 - 1 - 0 - 0 - 0 1,191 2020-11-12 22:24:27
102 Into the Arena 1,952,820 1,255 - 6 - 0 - 0 - 4 1,261 2020-11-12 22:20:05
172 The Day The Sun Exploded 1,319,260 848 - 3 - 1 - 0 - 1 852 2020-11-12 22:16:39
47 The Day The Sun Exploded [FC] 1,852,425 1,191 - 5 - 0 - 0 - 0 1,196 2020-11-12 22:14:35
280 Happy Meal 1,686,615 1,076 - 15 - 0 - 1 - 0 1,091 2020-11-12 22:11:11
557 Seedy Try 1,501,105 970 - 3 - 0 - 20 - 1 973 2020-11-12 22:04:56
84 Seedy Try [FC] 1,679,925 1,083 - 1 - 0 - 0 - 0 1,084 2020-11-12 22:01:25
491 Tightwad 637,315 557 - 1 - 0 - 1 - 0 331 2020-11-12 21:58:57
56 Tightwad [FC] 1,312,300 845 - 2 - 0 - 0 - 0 847 2020-11-12 21:54:23
72 Tightwad 1,066,675 845 - 1 - 0 - 1 - 2 602 2020-11-12 21:50:48
72 Tightwad [FC] 1,311,750 843 - 4 - 0 - 0 - 0 847 2020-11-12 21:48:30
401 Requiem -Dies irae- 969,610 1,088 - 26 - 0 - 6 - 4 366 2020-11-12 21:43:46
289 Chronograph 1,518,205 1,218 - 7 - 0 - 2 - 0 847 2020-11-12 21:36:02
758 Chronograph 1,544,290 1,147 - 19 - 1 - 22 - 1 915 2020-11-12 21:33:00
117 Stray Toy's Adventure!! 1,435,780 1,507 - 73 - 1 - 10 - 5 590 2020-11-12 21:24:28
287 VALLISTA 1,494,495 1,260 - 36 - 3 - 5 - 1 793 2020-11-12 21:20:35
550 VALLISTA 1,235,910 817 - 19 - 3 - 25 - 4 789 2020-11-12 21:17:26
1,026 Flesvelka 1,006,890 675 - 13 - 1 - 3 - 3 633 2020-11-12 21:12:55
351 Flesvelka 1,587,265 1,615 - 36 - 1 - 6 - 4 691 2020-11-12 21:10:12
441 Holy Orders 2,265,860 2,707 - 38 - 2 - 11 - 7 770 2020-11-12 20:55:47
668 Cold Heart 771,495 689 - 32 - 1 - 7 - 7 386 2020-11-12 20:49:50
641 Cold Heart 1,039,575 764 - 32 - 3 - 21 - 4 617 2020-11-12 20:48:11
322 Cold Heart 1,175,615 999 - 37 - 0 - 3 - 4 617 2020-11-12 20:46:41
629 Cold Heart 869,415 799 - 35 - 4 - 22 - 3 427 2020-11-12 20:43:44
651 Cold Heart 892,845 713 - 38 - 3 - 22 - 5 497 2020-11-12 20:41:51
323 Cold Heart 1,176,650 997 - 40 - 0 - 2 - 4 618 2020-11-12 20:40:10
389 Cold Heart 936,000 975 - 57 - 1 - 6 - 6 386 2020-11-12 20:37:11
632 Electro Rush x8 v2 1,161,990 1,118 - 78 - 2 - 17 - 10 531 2020-11-12 20:28:38
4,966 STRAWBERRY SWEETZ 1,116,540 711 - 13 - 1 - 10 - 2 725 2020-11-12 20:22:38
311 Title (Double Dragon) 2,288,545 2,535 - 234 - 9 - 29 - 28 839 2020-11-12 20:18:24
967 Title (Double Dragon) 6,270 6 - 2 - 0 - 18 - 0 8 2020-11-12 20:13:30
360 Vortex 1,581,740 1,851 - 143 - 9 - 25 - 19 532 2020-11-12 20:11:31
256 You're gonna love my nuts 1,926,675 2,777 - 589 - 52 - 135 - 83 278 2020-11-12 20:05:01
1,850 A Kidney Stone 935,270 1,033 - 219 - 27 - 67 - 41 327 2020-11-12 19:57:27
1,007 Zauberkugel 300,755 209 - 5 - 0 - 5 - 1 186 2020-11-12 19:54:49
231 Zauberkugel 1,324,165 1,376 - 14 - 3 - 5 - 5 565 2020-11-12 19:54:10
200 Zauberkugel 1,609,635 1,377 - 18 - 1 - 2 - 5 848 2020-11-12 19:50:36
4,066 Toxiferous Dystopia 632,020 400 - 12 - 0 - 4 - 2 410 2020-11-12 19:47:37
356 Toxiferous Dystopia 1,422,990 1,440 - 13 - 1 - 2 - 1 628 2020-11-12 19:45:52
395 Toxiferous Dystopia 1,723,890 1,436 - 17 - 1 - 2 - 1 930 2020-11-12 19:40:52
55 Benson & Hedges (Venetian Snares Remix) 2,016,575 2,057 - 68 - 3 - 8 - 8 869 2020-11-12 19:35:51
21 Tower of Heaven -Full moon Revenge- [FC] 3,057,600 1,971 - 2 - 0 - 0 - 0 1,973 2020-11-12 19:15:51
25 Tower of Heaven -Full moon Revenge- [FC] 3,056,480 1,967 - 6 - 0 - 0 - 1 1,973 2020-11-12 19:06:35
32 Tower of Heaven -Full moon Revenge- [FC] 3,054,610 1,961 - 11 - 1 - 0 - 1 1,973 2020-11-12 18:56:32
38 Tower of Heaven -Full moon Revenge- [FC] 3,051,265 1,950 - 21 - 2 - 0 - 6 1,973 2020-11-12 18:52:11
37 Tower of Heaven -Full moon Revenge- [FC] 3,051,510 1,949 - 24 - 0 - 0 - 2 1,973 2020-11-12 18:47:32
1,317 Bowser the Shredder 778,350 816 - 22 - 0 - 8 - 1 326 2020-11-12 18:43:04
211 elegante [FC] 1,549,450 998 - 2 - 0 - 0 - 0 1,000 2020-11-12 18:27:49
1 Miss Jackson [AAA] [FC] 1,353,150 873 - 0 - 0 - 0 - 0 873 2020-11-12 18:21:47
669 Ah Shwe Bah 1,100,365 1,230 - 126 - 5 - 32 - 7 399 2020-11-09 21:53:21
962 The Limit Does Not Exist 969,740 1,176 - 305 - 65 - 63 - 99 257 2020-11-09 21:49:33
571 Canary Part V 1,037,470 1,389 - 358 - 18 - 86 - 63 202 2020-11-09 21:40:19
473 RAN 1,993,465 1,678 - 64 - 5 - 7 - 7 1,055 2020-11-09 21:28:34
1,510 RAN 1,609,260 1,237 - 74 - 2 - 11 - 7 912 2020-11-09 21:24:36
557 RAN 1,842,030 1,651 - 90 - 4 - 9 - 10 912 2020-11-09 21:20:52
443 Stress Free Style 490,600 545 - 206 - 20 - 46 - 32 148 2020-11-09 21:14:39
165 New World Disorder (23's Orchestra Dubstyle Extravaganza) 1,733,270 1,249 - 6 - 0 - 1 - 1 1,045 2020-11-09 21:08:26
257 Inspector Gadget [Powerglove] 1,624,110 2,003 - 166 - 10 - 30 - 22 486 2020-11-09 19:24:20
754 Weapon 1,815,275 2,061 - 106 - 5 - 40 - 15 665 2020-11-09 19:19:25
2,763 Cloud Nine 642,710 420 - 14 - 2 - 7 - 4 410 2020-11-09 19:15:41
1,117 (The title is) TOO LONG to write here. 1,323,400 848 - 12 - 0 - 20 - 5 860 2020-11-09 19:12:58
169 You, beer. 1,481,155 1,008 - 5 - 0 - 2 - 0 926 2020-11-09 19:08:31
293 Human World - Wandering Soul 970,080 617 - 12 - 0 - 5 - 1 629 2020-11-09 19:04:05
1,241 Exotic Matter 740,140 517 - 6 - 0 - 6 - 0 456 2020-11-09 19:02:01
596 XP Sounds Attempt [FC] 1,241,075 795 - 7 - 0 - 0 - 5 802 2020-11-09 18:59:30
5,999 XP Sounds Attempt 11,025 7 - 5 - 0 - 20 - 0 12 2020-11-09 18:57:21
533 Yakusoku -HappyHyperStarmiX- [FC] 1,944,425 1,252 - 3 - 0 - 0 - 0 1,255 2020-11-09 18:55:07
13,840 Utopia [Smiley] 393,390 258 - 0 - 0 - 21 - 0 258 2020-11-09 18:52:07
1,701 Smoke Weed Everyday 771,310 496 - 2 - 0 - 0 - 2 498 2020-11-09 18:51:08
1 Defcon Zero [AAA] [FC] 629,300 406 - 0 - 0 - 0 - 0 406 2020-11-09 18:47:29
1 Speed Limit 38 [AAA] [FC] 1,092,750 705 - 0 - 0 - 0 - 0 705 2020-11-08 01:29:42
1 lightfoot [AAA] [FC] 1,137,700 734 - 0 - 0 - 0 - 0 734 2020-11-08 01:25:10
1 Kirlian Voyager [AAA] [FC] 940,850 607 - 0 - 0 - 0 - 0 607 2020-11-08 01:22:09
1 La Tristesse Durera Toujours [AAA] [FC] 1,030,750 665 - 0 - 0 - 0 - 0 665 2020-11-08 01:15:49
1 Elektrik Shiivers [AAA] [FC] 528,550 341 - 0 - 0 - 0 - 0 341 2020-11-08 01:12:36
1 Tap on Damen [AAA] [FC] 1,013,700 654 - 0 - 0 - 0 - 0 654 2020-11-08 01:10:55
1 Subterfuge Shuffle [AAA] [FC] 548,700 354 - 0 - 0 - 0 - 0 354 2020-11-08 01:08:13
1 DMYK [AAA] [FC] 2,348,250 1,515 - 0 - 0 - 0 - 0 1,515 2020-11-07 22:14:07
1,059 Neurotoxin 1,232,825 832 - 19 - 8 - 2 - 41 771 2020-11-07 22:09:47
8,699 None Would Escape 1,129,560 728 - 3 - 1 - 2 - 5 729 2020-11-07 22:06:00
6,202 Xeno-Flow 965,320 625 - 0 - 0 - 11 - 1 625 2020-11-07 22:01:54
6,184 Xeno-Flow 976,460 630 - 0 - 0 - 0 - 2 630 2020-11-07 21:59:13
165 Xeno-Flow [FC] 2,837,775 1,830 - 1 - 0 - 0 - 0 1,831 2020-11-07 21:49:57
1 CQ Boss [AAA] [FC] 1,863,100 1,202 - 0 - 0 - 0 - 0 1,202 2020-11-07 21:44:39
38 Polis Ruin [FC] 1,820,425 1,172 - 3 - 0 - 0 - 0 1,175 2020-11-07 21:37:32
681 Didj PVC 1,074,080 768 - 12 - 0 - 2 - 0 649 2020-11-07 21:34:28
1,362 Keep In Mind 1,974,110 1,269 - 6 - 0 - 1 - 9 1,275 2020-11-07 21:32:34
1,291 Dark World 737,205 490 - 0 - 1 - 1 - 2 468 2020-11-07 21:29:52
738 going on -spring wind- 1,765,200 1,175 - 13 - 1 - 2 - 3 1,116 2020-11-07 21:25:46
5,996 Black Key Etude 631,715 523 - 14 - 1 - 2 - 11 341 2020-11-07 21:22:57
2,006 Boot 665,655 427 - 3 - 0 - 0 - 1 430 2020-11-07 21:21:29
328 Jeanie and Caroline [FC] 1,882,185 1,212 - 2 - 1 - 0 - 1 1,215 2020-11-07 21:14:58
337 Quark 1,818,010 1,165 - 13 - 1 - 1 - 3 1,174 2020-11-07 21:12:01
209 R2 1,586,370 1,104 - 4 - 0 - 3 - 0 979 2020-11-07 21:09:14
286 You Goddamn Fish 1,068,760 770 - 6 - 0 - 1 - 4 644 2020-11-07 21:05:54
312 .357 Magnum 1,694,740 1,470 - 3 - 1 - 2 - 1 886 2020-11-07 21:03:46
346 Lawn Wake I [FC] 2,195,525 1,414 - 3 - 0 - 0 - 0 1,417 2020-11-07 20:57:36
1,710 Fast Asleep 765,415 479 - 17 - 2 - 2 - 10 498 2020-11-07 20:54:33
125 Dandelion Sparkle!! [FC] 1,880,580 1,210 - 4 - 0 - 0 - 1 1,214 2020-11-07 20:51:37
272 Ochitsukeruwakenaiwayo! [Heavy] 1,558,995 1,079 - 45 - 4 - 3 - 6 954 2020-11-07 20:47:43
5,094 Perfect Cherry Storm 538,680 538 - 12 - 2 - 5 - 4 241 2020-11-07 20:45:08
237 Great Battleship 1,708,675 1,595 - 23 - 2 - 3 - 4 826 2020-11-07 20:40:28
376 Momentary Life 2,210,875 2,069 - 48 - 1 - 7 - 8 1,062 2020-11-07 20:37:24
336 Silly Symphony 2,182,515 2,202 - 17 - 0 - 4 - 1 968 2020-11-07 20:32:11
1,799 Sleep [Part 1] 14,880 10 - 0 - 0 - 2 - 0 10 2020-11-07 20:28:17
225 Tunnelling 1,833,885 1,419 - 52 - 3 - 3 - 5 1,040 2020-11-07 20:26:07
348 Arcanum Guardian 1,302,415 1,331 - 110 - 17 - 18 - 12 545 2020-11-07 20:23:00
260 Piano x Forte x Scandal 3,886,710 2,581 - 20 - 2 - 1 - 7 2,462 2020-11-07 20:16:11
1,690 Shotgun Surgery 29,905 21 - 9 - 0 - 10 - 1 19 2020-11-07 20:11:34
1,261 Grand Galop Chromatique 1,809,795 2,143 - 144 - 13 - 25 - 21 599 2020-11-07 20:08:27
488 Real 944,595 839 - 82 - 7 - 21 - 14 467 2020-11-07 20:03:47
398 Real 1,223,475 992 - 91 - 2 - 10 - 8 656 2020-11-07 20:01:26
333 Real 1,248,240 1,033 - 81 - 7 - 11 - 8 661 2020-11-07 19:59:29
957 Across Rooftops 1,657,870 2,103 - 121 - 13 - 17 - 25 473 2020-11-07 19:55:18
533 Double Helix 1,565,730 2,017 - 158 - 12 - 23 - 30 420 2020-11-07 19:50:52
896 The Limit Does Not Exist 1,354,990 1,237 - 286 - 50 - 36 - 80 606 2020-11-07 19:47:07
399 Rock Rock Rock (t+pazolite Remix) 1,495,900 2,001 - 132 - 6 - 32 - 18 369 2020-11-07 19:43:51
694 La Campanella 2,336,860 2,608 - 226 - 14 - 40 - 53 853 2020-11-07 19:32:36
845 All your base are belong to ME 480,330 565 - 143 - 21 - 36 - 37 141 2020-11-07 19:27:40
306 Herbie Goes Ballistic 2,605,645 3,734 - 230 - 35 - 33 - 100 499 2020-11-07 19:25:10
901 Winter Wind Etude 1,201,655 1,652 - 595 - 50 - 110 - 111 163 2020-11-07 19:17:25
486 Beware the Purple Water 1,478,235 1,671 - 54 - 5 - 12 - 11 548 2020-11-07 19:00:56
2,403 Club 553,965 483 - 32 - 3 - 11 - 12 283 2020-11-07 18:56:39
998 Club 671,510 534 - 27 - 1 - 11 - 13 374 2020-11-07 18:55:07
1,050 Club 739,130 531 - 30 - 6 - 6 - 32 441 2020-11-07 18:53:29
959 Club 733,355 530 - 36 - 1 - 6 - 12 434 2020-11-07 18:51:53
946 AIM Anthem 635,195 620 - 99 - 4 - 13 - 11 271 2020-11-07 18:49:44
1 BEER! [Psychostick] [AAA] [FC] 1,123,750 725 - 0 - 0 - 0 - 0 725 2020-11-07 18:46:57
1 Excite Bike [Light] [AAA] [FC] 49,600 32 - 0 - 0 - 0 - 0 32 2020-11-06 21:31:25
1 Excite Bike [Light] [AAA] [FC] 49,600 32 - 0 - 0 - 0 - 0 32 2020-11-06 21:31:09
1 Excite Bike [Light] [AAA] [FC] 49,600 32 - 0 - 0 - 0 - 0 32 2020-11-06 21:30:57
12,288 Excite Bike [Light] [FC] 49,325 31 - 1 - 0 - 0 - 0 32 2020-11-06 21:30:08
816 PWRPFF RAVES 141,320 94 - 2 - 0 - 19 - 2 95 2020-11-06 21:29:38
1,534 Stuck 7,765 4 - 3 - 0 - 4 - 1 6 2020-11-06 21:28:45
1,233 Beatrice 1,258,915 809 - 6 - 1 - 12 - 1 816 2020-11-06 21:25:35
1 Splinter [AAA] [FC] 1,904,950 1,229 - 0 - 0 - 0 - 0 1,229 2020-11-06 21:20:56
2,149 Ice Disk 1,475,360 951 - 2 - 0 - 4 - 0 953 2020-11-06 21:16:52
197 Red Sphere, Blue Sphere 1,235,935 884 - 5 - 0 - 2 - 1 749 2020-11-06 21:14:55
72 breathe [qfeileadh] 1,171,640 1,272 - 39 - 5 - 6 - 5 463 2020-11-06 21:12:43
44 Two can't do it Alone 2,078,875 1,421 - 18 - 1 - 2 - 3 1,293 2020-11-06 21:09:24
94 Reflective Moment 707,070 465 - 9 - 1 - 7 - 2 451 2020-11-06 21:04:10
334 Pokamen Party 1,313,035 1,453 - 32 - 1 - 3 - 2 506 2020-11-06 20:58:15
520 cheerful forest 1,431,500 1,185 - 52 - 6 - 12 - 8 769 2020-11-06 20:54:39
866 Faint Breath 1,593,280 1,254 - 66 - 4 - 5 - 12 887 2020-11-06 20:51:06
458 Master Maid 2,219,595 1,438 - 23 - 2 - 2 - 6 1,423 2020-11-06 20:48:23
1,145 The Rapids 977,880 1,013 - 39 - 5 - 7 - 5 412 2020-11-06 20:44:51
225 Wake Up, Gladiator 1,504,030 1,605 - 14 - 0 - 5 - 1 619 2020-11-06 20:40:48
344 Valhalla 2,277,470 1,482 - 32 - 0 - 1 - 6 1,454 2020-11-06 20:30:06
4,124 Setsujou! Hyakka Ryouran! 1,508,780 1,133 - 24 - 0 - 3 - 2 880 2020-11-06 20:26:28
775 Setsujou! Hyakka Ryouran! 2,513,045 1,790 - 21 - 2 - 4 - 5 1,524 2020-11-06 20:23:32
299 Ochitsukeruwakenaiwayo! [Heavy] 1,081,000 1,054 - 67 - 3 - 7 - 6 485 2020-11-06 20:18:33
213 Ani Mevushal 396,235 328 - 10 - 1 - 3 - 2 214 2020-11-06 20:15:32
113 Handle Your Business 1,567,590 1,243 - 30 - 0 - 7 - 7 878 2020-11-06 20:14:18
406 Weapon 2,619,180 3,014 - 161 - 7 - 22 - 18 924 2020-11-06 20:11:31
3,608 Across Rooftops 1,035,910 914 - 101 - 11 - 9 - 19 508 2020-11-06 20:05:39
396 Shotgun Surgery 2,002,395 2,784 - 280 - 11 - 51 - 30 410 2020-11-06 20:03:25
1,036 Shotgun Surgery 369,170 366 - 63 - 1 - 43 - 9 164 2020-11-06 19:59:11
620 Double Helix 1,528,640 1,910 - 252 - 12 - 36 - 33 420 2020-11-06 19:55:33
665 Double Helix 1,464,465 1,866 - 258 - 13 - 48 - 31 382 2020-11-06 19:51:10
742 The Devil Plays Dance Games 1,027,760 1,117 - 165 - 19 - 31 - 20 377 2020-11-06 19:47:33
1,027 The Limit Does Not Exist 943,240 1,134 - 309 - 57 - 81 - 73 258 2020-11-06 19:43:19
1,194 The Limit Does Not Exist 1,102,590 1,037 - 219 - 19 - 39 - 47 484 2020-11-06 19:39:42
810 Herbie Goes Ballistic 364,475 233 - 5 - 0 - 3 - 6 236 2020-11-06 19:35:14
366 Herbie Goes Ballistic 2,486,525 3,491 - 330 - 29 - 51 - 53 491 2020-11-06 19:34:34
326 Herbie Goes Ballistic 2,651,570 3,658 - 301 - 21 - 52 - 57 573 2020-11-06 19:24:56
380 All your base are belong to ME 2,012,800 2,953 - 463 - 31 - 116 - 71 297 2020-11-06 19:18:11
415 All your base are belong to ME 1,867,080 2,778 - 589 - 37 - 159 - 77 226 2020-11-06 19:12:32
68 Galacta Knight 562,640 636 - 67 - 7 - 25 - 11 202 2020-11-06 19:07:51
57 Galacta Knight 1,088,855 1,370 - 149 - 8 - 22 - 12 301 2020-11-06 19:05:26
57 Galacta Knight 981,630 1,339 - 157 - 19 - 34 - 25 212 2020-11-06 19:02:34
509 Zombie Sunset 2,245,505 2,326 - 361 - 24 - 69 - 50 888 2020-11-06 18:58:00
227 404th of July 511,680 445 - 46 - 0 - 28 - 2 263 2020-11-06 18:51:59
194 Ring Ring Bang 1,940,215 1,605 - 15 - 0 - 2 - 2 1,054 2020-11-06 18:48:32
211 Ring Ring Bang 2,069,810 1,598 - 20 - 2 - 2 - 4 1,186 2020-11-06 18:43:11
336 Ring Ring Bang 1,783,585 1,173 - 28 - 1 - 4 - 4 1,132 2020-11-06 18:40:12
37 Time 4 Your Medicine 778,665 591 - 7 - 0 - 1 - 0 452 2020-11-06 18:36:04
65 Steel River [FC] 1,272,780 818 - 3 - 1 - 0 - 0 822 2020-11-06 18:34:06
134 Phantasy Story -Re:Start- [FC] 1,797,405 1,154 - 6 - 1 - 0 - 0 1,161 2020-11-06 18:31:05
41 The Greet and Eat (Boss Theme) [FC] 1,464,475 944 - 1 - 0 - 0 - 0 945 2020-11-06 18:28:12
73 SAIKOU [FC] 1,329,625 857 - 1 - 0 - 0 - 0 858 2020-11-06 18:25:53
154 Lycanthrope 1,560,970 993 - 23 - 1 - 8 - 4 1,011 2020-11-06 18:22:59
169 The Greet and Eat (Boss Theme) 636,970 409 - 3 - 1 - 6 - 0 413 2020-11-06 18:17:11
907 Exclusive Utopia 897,760 562 - 32 - 2 - 7 - 4 582 2020-11-05 19:29:17
351 Horizon Remix v2 1,144,935 738 - 3 - 0 - 9 - 0 741 2020-11-05 19:26:19
225 404th of July 490,175 461 - 80 - 1 - 27 - 3 223 2020-11-05 19:24:10
1,415 Zombie Sunset 764,055 482 - 15 - 0 - 7 - 0 497 2020-11-05 19:20:08
924 Stately, Wrong 1,236,045 1,208 - 107 - 0 - 28 - 5 551 2020-11-05 19:17:54
1,613 Fish Hell 542,335 509 - 29 - 2 - 24 - 13 262 2020-11-05 19:14:40
320 Lust for Blood 1,641,570 1,363 - 53 - 3 - 28 - 7 886 2020-11-05 18:01:47
816 PrayStation 819,210 524 - 14 - 0 - 22 - 1 534 2020-11-05 17:58:15
166 Brostep Strikes Back 1,334,705 858 - 5 - 0 - 5 - 1 863 2020-11-05 17:55:37
107 Opia 1,408,570 1,246 - 43 - 1 - 11 - 10 715 2020-11-05 17:52:04
1,907 Feldschlacht (j.z. mix) 1,383,835 881 - 12 - 3 - 0 - 9 896 2020-11-04 23:34:07
9,663 Jelly Roll Blues 826,065 528 - 11 - 0 - 14 - 1 537 2020-11-04 23:31:33
1,939 {Evolution} Out Stage 1,084,460 721 - 6 - 0 - 12 - 1 690 2020-11-04 23:29:32
2,569 Four Blocks Madness 283,500 194 - 13 - 3 - 2 - 16 174 2020-11-04 23:27:25
6,771 Kil Stage 408,030 262 - 2 - 0 - 2 - 0 264 2020-11-04 23:25:52
847 We Met Dat Night 1,251,175 813 - 16 - 1 - 17 - 8 805 2020-11-04 23:23:43
1 R176 [AAA] [FC] 1,546,900 998 - 0 - 0 - 0 - 0 998 2020-11-04 23:10:02
1 LUV CAN SAVE U [AAA] [FC] 1,705,000 1,100 - 0 - 0 - 0 - 0 1,100 2020-11-04 23:00:27
5,681 Piano X Forte 1,136,510 732 - 2 - 0 - 2 - 1 734 2020-11-04 22:57:30
1 the Article by Crow [AAA] [FC] 2,058,400 1,328 - 0 - 0 - 0 - 0 1,328 2020-11-04 22:51:10
1,529 the Article by Crow 1,704,725 1,103 - 1 - 0 - 20 - 0 1,104 2020-11-04 22:48:44
2,056 the Article by Crow 726,965 469 - 1 - 0 - 4 - 1 470 2020-11-04 22:46:17
2,216 Tamashii 1,001,765 643 - 5 - 0 - 4 - 1 648 2020-11-04 22:44:53
220 Parousia [FC] 1,586,375 1,021 - 3 - 0 - 0 - 0 1,024 2020-11-04 22:42:58
2,241 Etude On A Nimbus 796,600 509 - 6 - 0 - 0 - 0 515 2020-11-04 22:39:47
262 Tritsch Tratsch Polka [Heavy] 103,025 64 - 3 - 0 - 0 - 0 67 2020-11-04 22:38:42
1,043 Keep In Mind 2,042,735 1,309 - 10 - 1 - 0 - 1 1,320 2020-11-04 22:37:56
1,784 Boot 1,057,380 676 - 8 - 0 - 2 - 0 684 2020-11-04 22:35:13
1,417 Boot 1,540,525 998 - 9 - 2 - 22 - 7 996 2020-11-04 22:32:02
136 DESIRE DRIVE (LLS HARDCORE REMIX) [Heavy] [FC] 1,752,710 1,126 - 5 - 1 - 0 - 1 1,132 2020-11-04 22:22:21
633 Men & Machines [Redemption] 1,151,125 903 - 3 - 0 - 1 - 2 654 2020-11-04 22:19:26
1,343 super mario bros theme (original NES is awesome) 792,185 611 - 35 - 2 - 8 - 6 449 2020-11-04 22:17:08
1,283 The Rapids 942,005 771 - 27 - 2 - 8 - 5 513 2020-11-04 22:15:11
649 Lexus Cyanixs 1,271,035 1,172 - 26 - 3 - 22 - 3 626 2020-11-04 22:12:19
375 Exclusive Utopia 1,413,610 1,246 - 28 - 0 - 1 - 4 721 2020-11-04 22:10:17
413 Exclusive Utopia 1,718,425 1,235 - 38 - 1 - 1 - 1 1,029 2020-11-04 22:08:12
1,246 When Penguins Fly 265,145 183 - 22 - 1 - 5 - 3 160 2020-11-04 22:05:59
1,179 DRAGONLADY 346,880 248 - 4 - 0 - 2 - 0 210 2020-11-04 22:05:17
224 YATA [FC] 1,712,255 1,094 - 13 - 0 - 0 - 1 1,107 2020-11-04 22:01:45
6,165 Dead and Direct 484,440 432 - 12 - 2 - 5 - 1 245 2020-11-04 21:59:12
635 Queen of Bootlegs 997,295 1,268 - 67 - 2 - 24 - 10 289 2020-11-04 21:56:36
373 Death Moon 1,842,125 1,702 - 91 - 4 - 10 - 6 884 2020-11-04 21:54:01